<?xml version="1.0" encoding="UTF-8" standalone="no" ?><gpx xmlns="http://www.topografix.com/GPX/1/1" xmlns:gpxx="http://www.garmin.com/xmlschemas/GpxExtensions/v3" xmlns:wptx1="http://www.garmin.com/xmlschemas/WaypointExtension/v1" xmlns:gpxtpx="http://www.garmin.com/xmlschemas/TrackPointExtension/v1" creator="GuideVTT.com" version="1.1" xmlns:xsi="http://www.w3.org/2001/XMLSchema-instance" xsi:schemaLocation="http://www.topografix.com/GPX/1/1 http://www.topografix.com/GPX/1/1/gpx.xsd http://www.garmin.com/xmlschemas/GpxExtensions/v3 http://www8.garmin.com/xmlschemas/GpxExtensionsv3.xsd http://www.garmin.com/xmlschemas/WaypointExtension/v1 http://www8.garmin.com/xmlschemas/WaypointExtensionv1.xsd http://www.garmin.com/xmlschemas/TrackPointExtension/v1 http://www.garmin.com/xmlschemas/TrackPointExtensionv1.xsd">
<metadata><link href="http://www.garmin.com"><text>Garmin International</text></link><time>2013-06-22T15:13:50Z</time></metadata>
<trk><name>parcours_n01_damville.gpx</name><extensions><gpxx:TrackExtension><gpxx:DisplayColor>Cyan</gpxx:DisplayColor></gpxx:TrackExtension></extensions><trkseg>
<trkpt lat="48.60597000" lon="0.909060000"><ele>0</ele><time>2010-01-01T00:00:00Z</time></trkpt>
<trkpt lat="48.60569000" lon="0.910040000"><ele>0</ele><time>2010-01-01T00:00:28Z</time></trkpt>
<trkpt lat="48.60565000" lon="0.910320000"><ele>0</ele><time>2010-01-01T00:00:35Z</time></trkpt>
<trkpt lat="48.60563000" lon="0.910740000"><ele>0</ele><time>2010-01-01T00:00:46Z</time></trkpt>
<trkpt lat="48.60569000" lon="0.910690000"><ele>0</ele><time>2010-01-01T00:00:49Z</time></trkpt>
<trkpt lat="48.60577000" lon="0.910680000"><ele>0</ele><time>2010-01-01T00:00:52Z</time></trkpt>
<trkpt lat="48.60586000" lon="0.910660000"><ele>0</ele><time>2010-01-01T00:00:56Z</time></trkpt>
<trkpt lat="48.60598000" lon="0.910690000"><ele>0</ele><time>2010-01-01T00:01:01Z</time></trkpt>
<trkpt lat="48.60610000" lon="0.910780000"><ele>0</ele><time>2010-01-01T00:01:06Z</time></trkpt>
<trkpt lat="48.60620000" lon="0.910950000"><ele>0</ele><time>2010-01-01T00:01:12Z</time></trkpt>
<trkpt lat="48.60626000" lon="0.911220000"><ele>0</ele><time>2010-01-01T00:01:20Z</time></trkpt>
<trkpt lat="48.60626000" lon="0.911420000"><ele>0</ele><time>2010-01-01T00:01:25Z</time></trkpt>
<trkpt lat="48.60621000" lon="0.911660000"><ele>0</ele><time>2010-01-01T00:01:32Z</time></trkpt>
<trkpt lat="48.60610000" lon="0.912020000"><ele>0</ele><time>2010-01-01T00:01:42Z</time></trkpt>
<trkpt lat="48.60583000" lon="0.912830000"><ele>0</ele><time>2010-01-01T00:02:06Z</time></trkpt>
<trkpt lat="48.60751000" lon="0.914240000"><ele>0</ele><time>2010-01-01T00:03:23Z</time></trkpt>
<trkpt lat="48.60804000" lon="0.910110000"><ele>0</ele><time>2010-01-01T00:05:15Z</time></trkpt>
<trkpt lat="48.60821000" lon="0.910130000"><ele>0</ele><time>2010-01-01T00:05:21Z</time></trkpt>
<trkpt lat="48.60822000" lon="0.909740000"><ele>0</ele><time>2010-01-01T00:05:32Z</time></trkpt>
<trkpt lat="48.60821000" lon="0.909470000"><ele>0</ele><time>2010-01-01T00:05:39Z</time></trkpt>
<trkpt lat="48.60823000" lon="0.909300000"><ele>0</ele><time>2010-01-01T00:05:43Z</time></trkpt>
<trkpt lat="48.60823000" lon="0.909100000"><ele>0</ele><time>2010-01-01T00:05:49Z</time></trkpt>
<trkpt lat="48.60820000" lon="0.908500000"><ele>0</ele><time>2010-01-01T00:06:05Z</time></trkpt>
<trkpt lat="48.60819000" lon="0.908460000"><ele>0</ele><time>2010-01-01T00:06:06Z</time></trkpt>
<trkpt lat="48.60819000" lon="0.908260000"><ele>0</ele><time>2010-01-01T00:06:11Z</time></trkpt>
<trkpt lat="48.60815000" lon="0.907440000"><ele>0</ele><time>2010-01-01T00:06:33Z</time></trkpt>
<trkpt lat="48.60813000" lon="0.907200000"><ele>0</ele><time>2010-01-01T00:06:39Z</time></trkpt>
<trkpt lat="48.60813000" lon="0.906950000"><ele>0</ele><time>2010-01-01T00:06:46Z</time></trkpt>
<trkpt lat="48.60814000" lon="0.906790000"><ele>0</ele><time>2010-01-01T00:06:50Z</time></trkpt>
<trkpt lat="48.60816000" lon="0.906640000"><ele>0</ele><time>2010-01-01T00:06:54Z</time></trkpt>
<trkpt lat="48.60821000" lon="0.906430000"><ele>0</ele><time>2010-01-01T00:07:00Z</time></trkpt>
<trkpt lat="48.60838000" lon="0.905980000"><ele>0</ele><time>2010-01-01T00:07:14Z</time></trkpt>
<trkpt lat="48.60886000" lon="0.904520000"><ele>0</ele><time>2010-01-01T00:07:57Z</time></trkpt>
<trkpt lat="48.60897000" lon="0.904230000"><ele>0</ele><time>2010-01-01T00:08:06Z</time></trkpt>
<trkpt lat="48.60924000" lon="0.903440000"><ele>0</ele><time>2010-01-01T00:08:29Z</time></trkpt>
<trkpt lat="48.60928000" lon="0.903350000"><ele>0</ele><time>2010-01-01T00:08:32Z</time></trkpt>
<trkpt lat="48.60949000" lon="0.902810000"><ele>0</ele><time>2010-01-01T00:08:49Z</time></trkpt>
<trkpt lat="48.60976000" lon="0.902220000"><ele>0</ele><time>2010-01-01T00:09:08Z</time></trkpt>
<trkpt lat="48.61016000" lon="0.901290000"><ele>0</ele><time>2010-01-01T00:09:37Z</time></trkpt>
<trkpt lat="48.61025000" lon="0.901060000"><ele>0</ele><time>2010-01-01T00:09:44Z</time></trkpt>
<trkpt lat="48.61042000" lon="0.900470000"><ele>0</ele><time>2010-01-01T00:10:01Z</time></trkpt>
<trkpt lat="48.61042000" lon="0.900450000"><ele>0</ele><time>2010-01-01T00:10:02Z</time></trkpt>
<trkpt lat="48.61047000" lon="0.900340000"><ele>0</ele><time>2010-01-01T00:10:05Z</time></trkpt>
<trkpt lat="48.61049000" lon="0.900310000"><ele>0</ele><time>2010-01-01T00:10:06Z</time></trkpt>
<trkpt lat="48.61050000" lon="0.900300000"><ele>0</ele><time>2010-01-01T00:10:07Z</time></trkpt>
<trkpt lat="48.61057000" lon="0.900300000"><ele>0</ele><time>2010-01-01T00:10:10Z</time></trkpt>
<trkpt lat="48.61123000" lon="0.900460000"><ele>0</ele><time>2010-01-01T00:10:37Z</time></trkpt>
<trkpt lat="48.61138000" lon="0.900510000"><ele>0</ele><time>2010-01-01T00:10:43Z</time></trkpt>
<trkpt lat="48.61356000" lon="0.900990000"><ele>0</ele><time>2010-01-01T00:12:11Z</time></trkpt>
<trkpt lat="48.61369000" lon="0.901010000"><ele>0</ele><time>2010-01-01T00:12:16Z</time></trkpt>
<trkpt lat="48.61484000" lon="0.901290000"><ele>0</ele><time>2010-01-01T00:13:03Z</time></trkpt>
<trkpt lat="48.61594000" lon="0.901530000"><ele>0</ele><time>2010-01-01T00:13:47Z</time></trkpt>
<trkpt lat="48.61617000" lon="0.901590000"><ele>0</ele><time>2010-01-01T00:13:57Z</time></trkpt>
<trkpt lat="48.61642000" lon="0.901630000"><ele>0</ele><time>2010-01-01T00:14:07Z</time></trkpt>
<trkpt lat="48.61779000" lon="0.901910000"><ele>0</ele><time>2010-01-01T00:15:02Z</time></trkpt>
<trkpt lat="48.62029000" lon="0.902530000"><ele>0</ele><time>2010-01-01T00:16:43Z</time></trkpt>
<trkpt lat="48.62553000" lon="0.903690000"><ele>0</ele><time>2010-01-01T00:20:15Z</time></trkpt>
<trkpt lat="48.62560000" lon="0.903710000"><ele>0</ele><time>2010-01-01T00:20:18Z</time></trkpt>
<trkpt lat="48.62750000" lon="0.904130000"><ele>0</ele><time>2010-01-01T00:21:35Z</time></trkpt>
<trkpt lat="48.62810000" lon="0.904290000"><ele>0</ele><time>2010-01-01T00:21:59Z</time></trkpt>
<trkpt lat="48.63438000" lon="0.905710000"><ele>0</ele><time>2010-01-01T00:26:14Z</time></trkpt>
<trkpt lat="48.63480000" lon="0.905820000"><ele>0</ele><time>2010-01-01T00:26:31Z</time></trkpt>
<trkpt lat="48.63512000" lon="0.905880000"><ele>0</ele><time>2010-01-01T00:26:44Z</time></trkpt>
<trkpt lat="48.63555000" lon="0.905990000"><ele>0</ele><time>2010-01-01T00:27:01Z</time></trkpt>
<trkpt lat="48.63577000" lon="0.906030000"><ele>0</ele><time>2010-01-01T00:27:10Z</time></trkpt>
<trkpt lat="48.63599000" lon="0.906090000"><ele>0</ele><time>2010-01-01T00:27:19Z</time></trkpt>
<trkpt lat="48.63724000" lon="0.906360000"><ele>0</ele><time>2010-01-01T00:28:09Z</time></trkpt>
<trkpt lat="48.63735000" lon="0.906390000"><ele>0</ele><time>2010-01-01T00:28:14Z</time></trkpt>
<trkpt lat="48.64549000" lon="0.908260000"><ele>0</ele><time>2010-01-01T00:33:43Z</time></trkpt>
<trkpt lat="48.64580000" lon="0.908340000"><ele>0</ele><time>2010-01-01T00:33:56Z</time></trkpt>
<trkpt lat="48.64615000" lon="0.908410000"><ele>0</ele><time>2010-01-01T00:34:10Z</time></trkpt>
<trkpt lat="48.64754000" lon="0.908740000"><ele>0</ele><time>2010-01-01T00:35:07Z</time></trkpt>
<trkpt lat="48.64780000" lon="0.908790000"><ele>0</ele><time>2010-01-01T00:35:17Z</time></trkpt>
<trkpt lat="48.64818000" lon="0.908890000"><ele>0</ele><time>2010-01-01T00:35:32Z</time></trkpt>
<trkpt lat="48.65150000" lon="0.909650000"><ele>0</ele><time>2010-01-01T00:37:47Z</time></trkpt>
<trkpt lat="48.65186000" lon="0.909750000"><ele>0</ele><time>2010-01-01T00:38:02Z</time></trkpt>
<trkpt lat="48.65200000" lon="0.909780000"><ele>0</ele><time>2010-01-01T00:38:07Z</time></trkpt>
<trkpt lat="48.65241000" lon="0.909850000"><ele>0</ele><time>2010-01-01T00:38:24Z</time></trkpt>
<trkpt lat="48.65342000" lon="0.910080000"><ele>0</ele><time>2010-01-01T00:39:05Z</time></trkpt>
<trkpt lat="48.65377000" lon="0.910150000"><ele>0</ele><time>2010-01-01T00:39:19Z</time></trkpt>
<trkpt lat="48.65406000" lon="0.910230000"><ele>0</ele><time>2010-01-01T00:39:31Z</time></trkpt>
<trkpt lat="48.65446000" lon="0.910310000"><ele>0</ele><time>2010-01-01T00:39:47Z</time></trkpt>
<trkpt lat="48.66054000" lon="0.911720000"><ele>0</ele><time>2010-01-01T00:43:53Z</time></trkpt>
<trkpt lat="48.66164000" lon="0.911950000"><ele>0</ele><time>2010-01-01T00:44:37Z</time></trkpt>
<trkpt lat="48.66205000" lon="0.912050000"><ele>0</ele><time>2010-01-01T00:44:54Z</time></trkpt>
<trkpt lat="48.66246000" lon="0.912130000"><ele>0</ele><time>2010-01-01T00:45:11Z</time></trkpt>
<trkpt lat="48.66373000" lon="0.912410000"><ele>0</ele><time>2010-01-01T00:46:02Z</time></trkpt>
<trkpt lat="48.66802000" lon="0.913430000"><ele>0</ele><time>2010-01-01T00:48:56Z</time></trkpt>
<trkpt lat="48.66863000" lon="0.913560000"><ele>0</ele><time>2010-01-01T00:49:20Z</time></trkpt>
<trkpt lat="48.66976000" lon="0.913840000"><ele>0</ele><time>2010-01-01T00:50:06Z</time></trkpt>
<trkpt lat="48.67125000" lon="0.914180000"><ele>0</ele><time>2010-01-01T00:51:07Z</time></trkpt>
<trkpt lat="48.67159000" lon="0.914270000"><ele>0</ele><time>2010-01-01T00:51:20Z</time></trkpt>
<trkpt lat="48.67182000" lon="0.914320000"><ele>0</ele><time>2010-01-01T00:51:30Z</time></trkpt>
<trkpt lat="48.67321000" lon="0.914580000"><ele>0</ele><time>2010-01-01T00:52:26Z</time></trkpt>
<trkpt lat="48.67449000" lon="0.914870000"><ele>0</ele><time>2010-01-01T00:53:18Z</time></trkpt>
<trkpt lat="48.67475000" lon="0.914950000"><ele>0</ele><time>2010-01-01T00:53:28Z</time></trkpt>
<trkpt lat="48.67517000" lon="0.915030000"><ele>0</ele><time>2010-01-01T00:53:45Z</time></trkpt>
<trkpt lat="48.67984000" lon="0.916110000"><ele>0</ele><time>2010-01-01T00:56:54Z</time></trkpt>
<trkpt lat="48.68026000" lon="0.916220000"><ele>0</ele><time>2010-01-01T00:57:11Z</time></trkpt>
<trkpt lat="48.68042000" lon="0.916250000"><ele>0</ele><time>2010-01-01T00:57:18Z</time></trkpt>
<trkpt lat="48.68162000" lon="0.916530000"><ele>0</ele><time>2010-01-01T00:58:06Z</time></trkpt>
<trkpt lat="48.68207000" lon="0.916620000"><ele>0</ele><time>2010-01-01T00:58:24Z</time></trkpt>
<trkpt lat="48.68998000" lon="0.918460000"><ele>0</ele><time>2010-01-01T01:03:45Z</time></trkpt>
<trkpt lat="48.69030000" lon="0.918550000"><ele>0</ele><time>2010-01-01T01:03:58Z</time></trkpt>
<trkpt lat="48.69066000" lon="0.918620000"><ele>0</ele><time>2010-01-01T01:04:12Z</time></trkpt>
<trkpt lat="48.69261000" lon="0.919070000"><ele>0</ele><time>2010-01-01T01:05:31Z</time></trkpt>
<trkpt lat="48.69274000" lon="0.919110000"><ele>0</ele><time>2010-01-01T01:05:37Z</time></trkpt>
<trkpt lat="48.69374000" lon="0.919330000"><ele>0</ele><time>2010-01-01T01:06:17Z</time></trkpt>
<trkpt lat="48.69491000" lon="0.919610000"><ele>0</ele><time>2010-01-01T01:07:05Z</time></trkpt>
<trkpt lat="48.69723000" lon="0.920120000"><ele>0</ele><time>2010-01-01T01:08:38Z</time></trkpt>
<trkpt lat="48.69770000" lon="0.920210000"><ele>0</ele><time>2010-01-01T01:08:57Z</time></trkpt>
<trkpt lat="48.69916000" lon="0.920540000"><ele>0</ele><time>2010-01-01T01:09:56Z</time></trkpt>
<trkpt lat="48.69962000" lon="0.920660000"><ele>0</ele><time>2010-01-01T01:10:15Z</time></trkpt>
<trkpt lat="48.69972000" lon="0.920670000"><ele>0</ele><time>2010-01-01T01:10:19Z</time></trkpt>
<trkpt lat="48.69974000" lon="0.920680000"><ele>0</ele><time>2010-01-01T01:10:20Z</time></trkpt>
<trkpt lat="48.70009000" lon="0.920750000"><ele>0</ele><time>2010-01-01T01:10:34Z</time></trkpt>
<trkpt lat="48.70108000" lon="0.921000000"><ele>0</ele><time>2010-01-01T01:11:14Z</time></trkpt>
<trkpt lat="48.70170000" lon="0.921140000"><ele>0</ele><time>2010-01-01T01:11:39Z</time></trkpt>
<trkpt lat="48.70190000" lon="0.921200000"><ele>0</ele><time>2010-01-01T01:11:48Z</time></trkpt>
<trkpt lat="48.70214000" lon="0.921250000"><ele>0</ele><time>2010-01-01T01:11:57Z</time></trkpt>
<trkpt lat="48.70532000" lon="0.922010000"><ele>0</ele><time>2010-01-01T01:14:06Z</time></trkpt>
<trkpt lat="48.70830000" lon="0.922650000"><ele>0</ele><time>2010-01-01T01:16:07Z</time></trkpt>
<trkpt lat="48.70889000" lon="0.922790000"><ele>0</ele><time>2010-01-01T01:16:30Z</time></trkpt>
<trkpt lat="48.70901000" lon="0.922830000"><ele>0</ele><time>2010-01-01T01:16:35Z</time></trkpt>
<trkpt lat="48.70955000" lon="0.922950000"><ele>0</ele><time>2010-01-01T01:16:57Z</time></trkpt>
<trkpt lat="48.70956000" lon="0.922950000"><ele>0</ele><time>2010-01-01T01:16:58Z</time></trkpt>
<trkpt lat="48.71401000" lon="0.923950000"><ele>0</ele><time>2010-01-01T01:19:58Z</time></trkpt>
<trkpt lat="48.71438000" lon="0.924020000"><ele>0</ele><time>2010-01-01T01:20:13Z</time></trkpt>
<trkpt lat="48.71460000" lon="0.924100000"><ele>0</ele><time>2010-01-01T01:20:22Z</time></trkpt>
<trkpt lat="48.71545000" lon="0.924310000"><ele>0</ele><time>2010-01-01T01:20:56Z</time></trkpt>
<trkpt lat="48.72033000" lon="0.925420000"><ele>0</ele><time>2010-01-01T01:24:14Z</time></trkpt>
<trkpt lat="48.72041000" lon="0.925450000"><ele>0</ele><time>2010-01-01T01:24:17Z</time></trkpt>
<trkpt lat="48.72070000" lon="0.925510000"><ele>0</ele><time>2010-01-01T01:24:29Z</time></trkpt>
<trkpt lat="48.72374000" lon="0.926220000"><ele>0</ele><time>2010-01-01T01:26:32Z</time></trkpt>
<trkpt lat="48.72425000" lon="0.926320000"><ele>0</ele><time>2010-01-01T01:26:52Z</time></trkpt>
<trkpt lat="48.72526000" lon="0.926560000"><ele>0</ele><time>2010-01-01T01:27:33Z</time></trkpt>
<trkpt lat="48.72607000" lon="0.926730000"><ele>0</ele><time>2010-01-01T01:28:06Z</time></trkpt>
<trkpt lat="48.73034000" lon="0.927730000"><ele>0</ele><time>2010-01-01T01:30:59Z</time></trkpt>
<trkpt lat="48.73049000" lon="0.927790000"><ele>0</ele><time>2010-01-01T01:31:05Z</time></trkpt>
<trkpt lat="48.73055000" lon="0.927830000"><ele>0</ele><time>2010-01-01T01:31:08Z</time></trkpt>
<trkpt lat="48.73058000" lon="0.927860000"><ele>0</ele><time>2010-01-01T01:31:09Z</time></trkpt>
<trkpt lat="48.73063000" lon="0.927940000"><ele>0</ele><time>2010-01-01T01:31:12Z</time></trkpt>
<trkpt lat="48.73066000" lon="0.928040000"><ele>0</ele><time>2010-01-01T01:31:15Z</time></trkpt>
<trkpt lat="48.73078000" lon="0.927970000"><ele>0</ele><time>2010-01-01T01:31:20Z</time></trkpt>
<trkpt lat="48.73084000" lon="0.927930000"><ele>0</ele><time>2010-01-01T01:31:23Z</time></trkpt>
<trkpt lat="48.73091000" lon="0.927910000"><ele>0</ele><time>2010-01-01T01:31:26Z</time></trkpt>
<trkpt lat="48.73100000" lon="0.927900000"><ele>0</ele><time>2010-01-01T01:31:29Z</time></trkpt>
<trkpt lat="48.73111000" lon="0.927920000"><ele>0</ele><time>2010-01-01T01:31:34Z</time></trkpt>
<trkpt lat="48.73224000" lon="0.928190000"><ele>0</ele><time>2010-01-01T01:32:20Z</time></trkpt>
<trkpt lat="48.73231000" lon="0.928200000"><ele>0</ele><time>2010-01-01T01:32:22Z</time></trkpt>
<trkpt lat="48.73238000" lon="0.928220000"><ele>0</ele><time>2010-01-01T01:32:25Z</time></trkpt>
<trkpt lat="48.73243000" lon="0.928250000"><ele>0</ele><time>2010-01-01T01:32:27Z</time></trkpt>
<trkpt lat="48.73260000" lon="0.928270000"><ele>0</ele><time>2010-01-01T01:32:34Z</time></trkpt>
<trkpt lat="48.73275000" lon="0.928520000"><ele>0</ele><time>2010-01-01T01:32:43Z</time></trkpt>
<trkpt lat="48.73275000" lon="0.928700000"><ele>0</ele><time>2010-01-01T01:32:48Z</time></trkpt>
<trkpt lat="48.73280000" lon="0.929520000"><ele>0</ele><time>2010-01-01T01:33:10Z</time></trkpt>
<trkpt lat="48.73284000" lon="0.929790000"><ele>0</ele><time>2010-01-01T01:33:17Z</time></trkpt>
<trkpt lat="48.73292000" lon="0.930220000"><ele>0</ele><time>2010-01-01T01:33:29Z</time></trkpt>
<trkpt lat="48.73301000" lon="0.930630000"><ele>0</ele><time>2010-01-01T01:33:40Z</time></trkpt>
<trkpt lat="48.73314000" lon="0.931040000"><ele>0</ele><time>2010-01-01T01:33:52Z</time></trkpt>
<trkpt lat="48.73315000" lon="0.931050000"><ele>0</ele><time>2010-01-01T01:33:53Z</time></trkpt>
<trkpt lat="48.73318000" lon="0.931110000"><ele>0</ele><time>2010-01-01T01:33:55Z</time></trkpt>
<trkpt lat="48.73370000" lon="0.932730000"><ele>0</ele><time>2010-01-01T01:34:42Z</time></trkpt>
<trkpt lat="48.73391000" lon="0.933270000"><ele>0</ele><time>2010-01-01T01:34:59Z</time></trkpt>
<trkpt lat="48.73400000" lon="0.933480000"><ele>0</ele><time>2010-01-01T01:35:05Z</time></trkpt>
<trkpt lat="48.73419000" lon="0.933860000"><ele>0</ele><time>2010-01-01T01:35:18Z</time></trkpt>
<trkpt lat="48.73436000" lon="0.934160000"><ele>0</ele><time>2010-01-01T01:35:28Z</time></trkpt>
<trkpt lat="48.73461000" lon="0.934570000"><ele>0</ele><time>2010-01-01T01:35:43Z</time></trkpt>
<trkpt lat="48.73785000" lon="0.939640000"><ele>0</ele><time>2010-01-01T01:38:50Z</time></trkpt>
<trkpt lat="48.73794000" lon="0.939800000"><ele>0</ele><time>2010-01-01T01:38:55Z</time></trkpt>
<trkpt lat="48.73827000" lon="0.940470000"><ele>0</ele><time>2010-01-01T01:39:17Z</time></trkpt>
<trkpt lat="48.73841000" lon="0.940860000"><ele>0</ele><time>2010-01-01T01:39:29Z</time></trkpt>
<trkpt lat="48.73852000" lon="0.941200000"><ele>0</ele><time>2010-01-01T01:39:39Z</time></trkpt>
<trkpt lat="48.73864000" lon="0.941630000"><ele>0</ele><time>2010-01-01T01:39:51Z</time></trkpt>
<trkpt lat="48.73876000" lon="0.942150000"><ele>0</ele><time>2010-01-01T01:40:06Z</time></trkpt>
<trkpt lat="48.73894000" lon="0.943160000"><ele>0</ele><time>2010-01-01T01:40:33Z</time></trkpt>
<trkpt lat="48.73906000" lon="0.943970000"><ele>0</ele><time>2010-01-01T01:40:55Z</time></trkpt>
<trkpt lat="48.73945000" lon="0.946270000"><ele>0</ele><time>2010-01-01T01:41:58Z</time></trkpt>
<trkpt lat="48.73954000" lon="0.947000000"><ele>0</ele><time>2010-01-01T01:42:18Z</time></trkpt>
<trkpt lat="48.73971000" lon="0.948700000"><ele>0</ele><time>2010-01-01T01:43:03Z</time></trkpt>
<trkpt lat="48.73975000" lon="0.949230000"><ele>0</ele><time>2010-01-01T01:43:17Z</time></trkpt>
<trkpt lat="48.73977000" lon="0.949360000"><ele>0</ele><time>2010-01-01T01:43:21Z</time></trkpt>
<trkpt lat="48.73979000" lon="0.949620000"><ele>0</ele><time>2010-01-01T01:43:28Z</time></trkpt>
<trkpt lat="48.73981000" lon="0.949750000"><ele>0</ele><time>2010-01-01T01:43:31Z</time></trkpt>
<trkpt lat="48.73981000" lon="0.949840000"><ele>0</ele><time>2010-01-01T01:43:33Z</time></trkpt>
<trkpt lat="48.73988000" lon="0.950450000"><ele>0</ele><time>2010-01-01T01:43:50Z</time></trkpt>
<trkpt lat="48.73992000" lon="0.950680000"><ele>0</ele><time>2010-01-01T01:43:56Z</time></trkpt>
<trkpt lat="48.73995000" lon="0.950790000"><ele>0</ele><time>2010-01-01T01:43:59Z</time></trkpt>
<trkpt lat="48.73997000" lon="0.950900000"><ele>0</ele><time>2010-01-01T01:44:02Z</time></trkpt>
<trkpt lat="48.74039000" lon="0.952380000"><ele>0</ele><time>2010-01-01T01:44:45Z</time></trkpt>
<trkpt lat="48.74041000" lon="0.952490000"><ele>0</ele><time>2010-01-01T01:44:48Z</time></trkpt>
<trkpt lat="48.74090000" lon="0.954070000"><ele>0</ele><time>2010-01-01T01:45:34Z</time></trkpt>
<trkpt lat="48.74090000" lon="0.954080000"><ele>0</ele><time>2010-01-01T01:45:34Z</time></trkpt>
<trkpt lat="48.74110000" lon="0.954680000"><ele>0</ele><time>2010-01-01T01:45:52Z</time></trkpt>
<trkpt lat="48.74148000" lon="0.955920000"><ele>0</ele><time>2010-01-01T01:46:28Z</time></trkpt>
<trkpt lat="48.74160000" lon="0.956400000"><ele>0</ele><time>2010-01-01T01:46:42Z</time></trkpt>
<trkpt lat="48.74176000" lon="0.957350000"><ele>0</ele><time>2010-01-01T01:47:07Z</time></trkpt>
<trkpt lat="48.74177000" lon="0.957510000"><ele>0</ele><time>2010-01-01T01:47:12Z</time></trkpt>
<trkpt lat="48.74179000" lon="0.957670000"><ele>0</ele><time>2010-01-01T01:47:16Z</time></trkpt>
<trkpt lat="48.74189000" lon="0.958880000"><ele>0</ele><time>2010-01-01T01:47:48Z</time></trkpt>
<trkpt lat="48.74195000" lon="0.959330000"><ele>0</ele><time>2010-01-01T01:48:00Z</time></trkpt>
<trkpt lat="48.74203000" lon="0.959770000"><ele>0</ele><time>2010-01-01T01:48:12Z</time></trkpt>
<trkpt lat="48.74209000" lon="0.960010000"><ele>0</ele><time>2010-01-01T01:48:19Z</time></trkpt>
<trkpt lat="48.74217000" lon="0.960460000"><ele>0</ele><time>2010-01-01T01:48:31Z</time></trkpt>
<trkpt lat="48.74263000" lon="0.962550000"><ele>0</ele><time>2010-01-01T01:49:30Z</time></trkpt>
<trkpt lat="48.74270000" lon="0.962950000"><ele>0</ele><time>2010-01-01T01:49:40Z</time></trkpt>
<trkpt lat="48.74281000" lon="0.963760000"><ele>0</ele><time>2010-01-01T01:50:02Z</time></trkpt>
<trkpt lat="48.74285000" lon="0.964210000"><ele>0</ele><time>2010-01-01T01:50:14Z</time></trkpt>
<trkpt lat="48.74328000" lon="0.971610000"><ele>0</ele><time>2010-01-01T01:53:30Z</time></trkpt>
<trkpt lat="48.74342000" lon="0.972800000"><ele>0</ele><time>2010-01-01T01:54:02Z</time></trkpt>
<trkpt lat="48.74358000" lon="0.973970000"><ele>0</ele><time>2010-01-01T01:54:34Z</time></trkpt>
<trkpt lat="48.74360000" lon="0.974080000"><ele>0</ele><time>2010-01-01T01:54:37Z</time></trkpt>
<trkpt lat="48.74362000" lon="0.974290000"><ele>0</ele><time>2010-01-01T01:54:42Z</time></trkpt>
<trkpt lat="48.74364000" lon="0.974390000"><ele>0</ele><time>2010-01-01T01:54:45Z</time></trkpt>
<trkpt lat="48.74365000" lon="0.974500000"><ele>0</ele><time>2010-01-01T01:54:48Z</time></trkpt>
<trkpt lat="48.74371000" lon="0.974810000"><ele>0</ele><time>2010-01-01T01:54:57Z</time></trkpt>
<trkpt lat="48.74374000" lon="0.975020000"><ele>0</ele><time>2010-01-01T01:55:02Z</time></trkpt>
<trkpt lat="48.74376000" lon="0.975080000"><ele>0</ele><time>2010-01-01T01:55:04Z</time></trkpt>
<trkpt lat="48.74378000" lon="0.975220000"><ele>0</ele><time>2010-01-01T01:55:08Z</time></trkpt>
<trkpt lat="48.74380000" lon="0.975290000"><ele>0</ele><time>2010-01-01T01:55:10Z</time></trkpt>
<trkpt lat="48.74381000" lon="0.975350000"><ele>0</ele><time>2010-01-01T01:55:12Z</time></trkpt>
<trkpt lat="48.74400000" lon="0.976050000"><ele>0</ele><time>2010-01-01T01:55:32Z</time></trkpt>
<trkpt lat="48.74405000" lon="0.976200000"><ele>0</ele><time>2010-01-01T01:55:36Z</time></trkpt>
<trkpt lat="48.74434000" lon="0.977410000"><ele>0</ele><time>2010-01-01T01:56:10Z</time></trkpt>
<trkpt lat="48.74435000" lon="0.977510000"><ele>0</ele><time>2010-01-01T01:56:13Z</time></trkpt>
<trkpt lat="48.74437000" lon="0.977620000"><ele>0</ele><time>2010-01-01T01:56:16Z</time></trkpt>
<trkpt lat="48.74438000" lon="0.977720000"><ele>0</ele><time>2010-01-01T01:56:18Z</time></trkpt>
<trkpt lat="48.74442000" lon="0.977930000"><ele>0</ele><time>2010-01-01T01:56:24Z</time></trkpt>
<trkpt lat="48.74443000" lon="0.978030000"><ele>0</ele><time>2010-01-01T01:56:27Z</time></trkpt>
<trkpt lat="48.74447000" lon="0.978230000"><ele>0</ele><time>2010-01-01T01:56:32Z</time></trkpt>
<trkpt lat="48.74448000" lon="0.978340000"><ele>0</ele><time>2010-01-01T01:56:35Z</time></trkpt>
<trkpt lat="48.74452000" lon="0.978560000"><ele>0</ele><time>2010-01-01T01:56:41Z</time></trkpt>
<trkpt lat="48.74453000" lon="0.978670000"><ele>0</ele><time>2010-01-01T01:56:44Z</time></trkpt>
<trkpt lat="48.74457000" lon="0.978880000"><ele>0</ele><time>2010-01-01T01:56:50Z</time></trkpt>
<trkpt lat="48.74470000" lon="0.979780000"><ele>0</ele><time>2010-01-01T01:57:14Z</time></trkpt>
<trkpt lat="48.74473000" lon="0.979920000"><ele>0</ele><time>2010-01-01T01:57:18Z</time></trkpt>
<trkpt lat="48.74475000" lon="0.980050000"><ele>0</ele><time>2010-01-01T01:57:22Z</time></trkpt>
<trkpt lat="48.74481000" lon="0.980320000"><ele>0</ele><time>2010-01-01T01:57:29Z</time></trkpt>
<trkpt lat="48.74483000" lon="0.980450000"><ele>0</ele><time>2010-01-01T01:57:33Z</time></trkpt>
<trkpt lat="48.74487000" lon="0.980580000"><ele>0</ele><time>2010-01-01T01:57:36Z</time></trkpt>
<trkpt lat="48.74493000" lon="0.980840000"><ele>0</ele><time>2010-01-01T01:57:44Z</time></trkpt>
<trkpt lat="48.74497000" lon="0.980970000"><ele>0</ele><time>2010-01-01T01:57:48Z</time></trkpt>
<trkpt lat="48.74500000" lon="0.981100000"><ele>0</ele><time>2010-01-01T01:57:51Z</time></trkpt>
<trkpt lat="48.74544000" lon="0.982660000"><ele>0</ele><time>2010-01-01T01:58:36Z</time></trkpt>
<trkpt lat="48.74546000" lon="0.982750000"><ele>0</ele><time>2010-01-01T01:58:38Z</time></trkpt>
<trkpt lat="48.74564000" lon="0.983380000"><ele>0</ele><time>2010-01-01T01:58:57Z</time></trkpt>
<trkpt lat="48.74566000" lon="0.983490000"><ele>0</ele><time>2010-01-01T01:59:00Z</time></trkpt>
<trkpt lat="48.74569000" lon="0.983590000"><ele>0</ele><time>2010-01-01T01:59:02Z</time></trkpt>
<trkpt lat="48.74570000" lon="0.983690000"><ele>0</ele><time>2010-01-01T01:59:05Z</time></trkpt>
<trkpt lat="48.74574000" lon="0.983890000"><ele>0</ele><time>2010-01-01T01:59:11Z</time></trkpt>
<trkpt lat="48.74575000" lon="0.983990000"><ele>0</ele><time>2010-01-01T01:59:13Z</time></trkpt>
<trkpt lat="48.74577000" lon="0.984090000"><ele>0</ele><time>2010-01-01T01:59:16Z</time></trkpt>
<trkpt lat="48.74580000" lon="0.984390000"><ele>0</ele><time>2010-01-01T01:59:24Z</time></trkpt>
<trkpt lat="48.74582000" lon="0.984510000"><ele>0</ele><time>2010-01-01T01:59:27Z</time></trkpt>
<trkpt lat="48.74589000" lon="0.985480000"><ele>0</ele><time>2010-01-01T01:59:53Z</time></trkpt>
<trkpt lat="48.74589000" lon="0.985610000"><ele>0</ele><time>2010-01-01T01:59:57Z</time></trkpt>
<trkpt lat="48.74591000" lon="0.985860000"><ele>0</ele><time>2010-01-01T02:00:03Z</time></trkpt>
<trkpt lat="48.74592000" lon="0.986120000"><ele>0</ele><time>2010-01-01T02:00:10Z</time></trkpt>
<trkpt lat="48.74620000" lon="0.990440000"><ele>0</ele><time>2010-01-01T02:02:05Z</time></trkpt>
<trkpt lat="48.74643000" lon="0.992890000"><ele>0</ele><time>2010-01-01T02:03:10Z</time></trkpt>
<trkpt lat="48.74652000" lon="0.993560000"><ele>0</ele><time>2010-01-01T02:03:28Z</time></trkpt>
<trkpt lat="48.74656000" lon="0.993790000"><ele>0</ele><time>2010-01-01T02:03:34Z</time></trkpt>
<trkpt lat="48.74671000" lon="0.994450000"><ele>0</ele><time>2010-01-01T02:03:53Z</time></trkpt>
<trkpt lat="48.74683000" lon="0.994840000"><ele>0</ele><time>2010-01-01T02:04:04Z</time></trkpt>
<trkpt lat="48.74686000" lon="0.994970000"><ele>0</ele><time>2010-01-01T02:04:08Z</time></trkpt>
<trkpt lat="48.74690000" lon="0.995100000"><ele>0</ele><time>2010-01-01T02:04:12Z</time></trkpt>
<trkpt lat="48.74693000" lon="0.995230000"><ele>0</ele><time>2010-01-01T02:04:15Z</time></trkpt>
<trkpt lat="48.74697000" lon="0.995360000"><ele>0</ele><time>2010-01-01T02:04:19Z</time></trkpt>
<trkpt lat="48.74706000" lon="0.995720000"><ele>0</ele><time>2010-01-01T02:04:29Z</time></trkpt>
<trkpt lat="48.74708000" lon="0.995840000"><ele>0</ele><time>2010-01-01T02:04:32Z</time></trkpt>
<trkpt lat="48.74714000" lon="0.996070000"><ele>0</ele><time>2010-01-01T02:04:39Z</time></trkpt>
<trkpt lat="48.74716000" lon="0.996180000"><ele>0</ele><time>2010-01-01T02:04:42Z</time></trkpt>
<trkpt lat="48.74719000" lon="0.996300000"><ele>0</ele><time>2010-01-01T02:04:45Z</time></trkpt>
<trkpt lat="48.74729000" lon="0.996830000"><ele>0</ele><time>2010-01-01T02:05:00Z</time></trkpt>
<trkpt lat="48.74730000" lon="0.996940000"><ele>0</ele><time>2010-01-01T02:05:03Z</time></trkpt>
<trkpt lat="48.74732000" lon="0.997040000"><ele>0</ele><time>2010-01-01T02:05:06Z</time></trkpt>
<trkpt lat="48.74733000" lon="0.997150000"><ele>0</ele><time>2010-01-01T02:05:08Z</time></trkpt>
<trkpt lat="48.74735000" lon="0.997250000"><ele>0</ele><time>2010-01-01T02:05:11Z</time></trkpt>
<trkpt lat="48.74743000" lon="0.998030000"><ele>0</ele><time>2010-01-01T02:05:32Z</time></trkpt>
<trkpt lat="48.74747000" lon="0.998930000"><ele>0</ele><time>2010-01-01T02:05:56Z</time></trkpt>
<trkpt lat="48.74749000" lon="1.001220000"><ele>0</ele><time>2010-01-01T02:06:56Z</time></trkpt>
<trkpt lat="48.74752000" lon="1.002040000"><ele>0</ele><time>2010-01-01T02:07:18Z</time></trkpt>
<trkpt lat="48.74753000" lon="1.002120000"><ele>0</ele><time>2010-01-01T02:07:20Z</time></trkpt>
<trkpt lat="48.74754000" lon="1.002290000"><ele>0</ele><time>2010-01-01T02:07:25Z</time></trkpt>
<trkpt lat="48.74756000" lon="1.002480000"><ele>0</ele><time>2010-01-01T02:07:30Z</time></trkpt>
<trkpt lat="48.74759000" lon="1.002620000"><ele>0</ele><time>2010-01-01T02:07:34Z</time></trkpt>
<trkpt lat="48.74777000" lon="1.004240000"><ele>0</ele><time>2010-01-01T02:08:17Z</time></trkpt>
<trkpt lat="48.74785000" lon="1.004840000"><ele>0</ele><time>2010-01-01T02:08:33Z</time></trkpt>
<trkpt lat="48.74799000" lon="1.006140000"><ele>0</ele><time>2010-01-01T02:09:08Z</time></trkpt>
<trkpt lat="48.74828000" lon="1.009370000"><ele>0</ele><time>2010-01-01T02:10:34Z</time></trkpt>
<trkpt lat="48.74828000" lon="1.009420000"><ele>0</ele><time>2010-01-01T02:10:35Z</time></trkpt>
<trkpt lat="48.74834000" lon="1.009960000"><ele>0</ele><time>2010-01-01T02:10:50Z</time></trkpt>
<trkpt lat="48.74842000" lon="1.010970000"><ele>0</ele><time>2010-01-01T02:11:17Z</time></trkpt>
<trkpt lat="48.74843000" lon="1.011040000"><ele>0</ele><time>2010-01-01T02:11:18Z</time></trkpt>
<trkpt lat="48.74843000" lon="1.011110000"><ele>0</ele><time>2010-01-01T02:11:20Z</time></trkpt>
<trkpt lat="48.74844000" lon="1.011190000"><ele>0</ele><time>2010-01-01T02:11:22Z</time></trkpt>
<trkpt lat="48.74844000" lon="1.011260000"><ele>0</ele><time>2010-01-01T02:11:24Z</time></trkpt>
<trkpt lat="48.74846000" lon="1.011400000"><ele>0</ele><time>2010-01-01T02:11:28Z</time></trkpt>
<trkpt lat="48.74846000" lon="1.011470000"><ele>0</ele><time>2010-01-01T02:11:30Z</time></trkpt>
<trkpt lat="48.74847000" lon="1.011540000"><ele>0</ele><time>2010-01-01T02:11:32Z</time></trkpt>
<trkpt lat="48.74847000" lon="1.011610000"><ele>0</ele><time>2010-01-01T02:11:34Z</time></trkpt>
<trkpt lat="48.74848000" lon="1.011680000"><ele>0</ele><time>2010-01-01T02:11:36Z</time></trkpt>
<trkpt lat="48.74848000" lon="1.011820000"><ele>0</ele><time>2010-01-01T02:11:39Z</time></trkpt>
<trkpt lat="48.74849000" lon="1.011890000"><ele>0</ele><time>2010-01-01T02:11:41Z</time></trkpt>
<trkpt lat="48.74849000" lon="1.011960000"><ele>0</ele><time>2010-01-01T02:11:43Z</time></trkpt>
<trkpt lat="48.74850000" lon="1.012030000"><ele>0</ele><time>2010-01-01T02:11:45Z</time></trkpt>
<trkpt lat="48.74850000" lon="1.012190000"><ele>0</ele><time>2010-01-01T02:11:49Z</time></trkpt>
<trkpt lat="48.74851000" lon="1.012290000"><ele>0</ele><time>2010-01-01T02:11:52Z</time></trkpt>
<trkpt lat="48.74851000" lon="1.012380000"><ele>0</ele><time>2010-01-01T02:11:54Z</time></trkpt>
<trkpt lat="48.74852000" lon="1.012480000"><ele>0</ele><time>2010-01-01T02:11:57Z</time></trkpt>
<trkpt lat="48.74852000" lon="1.013270000"><ele>0</ele><time>2010-01-01T02:12:18Z</time></trkpt>
<trkpt lat="48.74851000" lon="1.013370000"><ele>0</ele><time>2010-01-01T02:12:20Z</time></trkpt>
<trkpt lat="48.74851000" lon="1.013580000"><ele>0</ele><time>2010-01-01T02:12:26Z</time></trkpt>
<trkpt lat="48.74850000" lon="1.013680000"><ele>0</ele><time>2010-01-01T02:12:29Z</time></trkpt>
<trkpt lat="48.74846000" lon="1.015400000"><ele>0</ele><time>2010-01-01T02:13:14Z</time></trkpt>
<trkpt lat="48.74845000" lon="1.015490000"><ele>0</ele><time>2010-01-01T02:13:16Z</time></trkpt>
<trkpt lat="48.74845000" lon="1.016650000"><ele>0</ele><time>2010-01-01T02:13:47Z</time></trkpt>
<trkpt lat="48.74846000" lon="1.016750000"><ele>0</ele><time>2010-01-01T02:13:50Z</time></trkpt>
<trkpt lat="48.74853000" lon="1.019110000"><ele>0</ele><time>2010-01-01T02:14:52Z</time></trkpt>
<trkpt lat="48.74854000" lon="1.019230000"><ele>0</ele><time>2010-01-01T02:14:55Z</time></trkpt>
<trkpt lat="48.74854000" lon="1.019350000"><ele>0</ele><time>2010-01-01T02:14:58Z</time></trkpt>
<trkpt lat="48.74855000" lon="1.019470000"><ele>0</ele><time>2010-01-01T02:15:02Z</time></trkpt>
<trkpt lat="48.74855000" lon="1.019590000"><ele>0</ele><time>2010-01-01T02:15:05Z</time></trkpt>
<trkpt lat="48.74856000" lon="1.019710000"><ele>0</ele><time>2010-01-01T02:15:08Z</time></trkpt>
<trkpt lat="48.74856000" lon="1.019830000"><ele>0</ele><time>2010-01-01T02:15:11Z</time></trkpt>
<trkpt lat="48.74857000" lon="1.019950000"><ele>0</ele><time>2010-01-01T02:15:14Z</time></trkpt>
<trkpt lat="48.74857000" lon="1.020130000"><ele>0</ele><time>2010-01-01T02:15:19Z</time></trkpt>
<trkpt lat="48.74859000" lon="1.020490000"><ele>0</ele><time>2010-01-01T02:15:29Z</time></trkpt>
<trkpt lat="48.74859000" lon="1.020670000"><ele>0</ele><time>2010-01-01T02:15:33Z</time></trkpt>
<trkpt lat="48.74861000" lon="1.021040000"><ele>0</ele><time>2010-01-01T02:15:43Z</time></trkpt>
<trkpt lat="48.74861000" lon="1.021220000"><ele>0</ele><time>2010-01-01T02:15:48Z</time></trkpt>
<trkpt lat="48.74863000" lon="1.021560000"><ele>0</ele><time>2010-01-01T02:15:57Z</time></trkpt>
<trkpt lat="48.74863000" lon="1.021730000"><ele>0</ele><time>2010-01-01T02:16:01Z</time></trkpt>
<trkpt lat="48.74870000" lon="1.022800000"><ele>0</ele><time>2010-01-01T02:16:30Z</time></trkpt>
<trkpt lat="48.74870000" lon="1.022910000"><ele>0</ele><time>2010-01-01T02:16:33Z</time></trkpt>
<trkpt lat="48.74875000" lon="1.023410000"><ele>0</ele><time>2010-01-01T02:16:46Z</time></trkpt>
<trkpt lat="48.74875000" lon="1.023520000"><ele>0</ele><time>2010-01-01T02:16:49Z</time></trkpt>
<trkpt lat="48.74899000" lon="1.025410000"><ele>0</ele><time>2010-01-01T02:17:40Z</time></trkpt>
<trkpt lat="48.74902000" lon="1.025560000"><ele>0</ele><time>2010-01-01T02:17:44Z</time></trkpt>
<trkpt lat="48.74906000" lon="1.025860000"><ele>0</ele><time>2010-01-01T02:17:52Z</time></trkpt>
<trkpt lat="48.74909000" lon="1.026000000"><ele>0</ele><time>2010-01-01T02:17:56Z</time></trkpt>
<trkpt lat="48.74918000" lon="1.026560000"><ele>0</ele><time>2010-01-01T02:18:11Z</time></trkpt>
<trkpt lat="48.74922000" lon="1.026740000"><ele>0</ele><time>2010-01-01T02:18:16Z</time></trkpt>
<trkpt lat="48.74925000" lon="1.026930000"><ele>0</ele><time>2010-01-01T02:18:21Z</time></trkpt>
<trkpt lat="48.74929000" lon="1.027110000"><ele>0</ele><time>2010-01-01T02:18:26Z</time></trkpt>
<trkpt lat="48.74932000" lon="1.027290000"><ele>0</ele><time>2010-01-01T02:18:31Z</time></trkpt>
<trkpt lat="48.74936000" lon="1.027480000"><ele>0</ele><time>2010-01-01T02:18:36Z</time></trkpt>
<trkpt lat="48.74940000" lon="1.027630000"><ele>0</ele><time>2010-01-01T02:18:41Z</time></trkpt>
<trkpt lat="48.74946000" lon="1.027940000"><ele>0</ele><time>2010-01-01T02:18:49Z</time></trkpt>
<trkpt lat="48.74950000" lon="1.028090000"><ele>0</ele><time>2010-01-01T02:18:53Z</time></trkpt>
<trkpt lat="48.74953000" lon="1.028240000"><ele>0</ele><time>2010-01-01T02:18:58Z</time></trkpt>
<trkpt lat="48.74994000" lon="1.029830000"><ele>0</ele><time>2010-01-01T02:19:43Z</time></trkpt>
<trkpt lat="48.75060000" lon="1.031870000"><ele>0</ele><time>2010-01-01T02:20:43Z</time></trkpt>
<trkpt lat="48.75097000" lon="1.032860000"><ele>0</ele><time>2010-01-01T02:21:13Z</time></trkpt>
<trkpt lat="48.75121000" lon="1.033410000"><ele>0</ele><time>2010-01-01T02:21:30Z</time></trkpt>
<trkpt lat="48.75156000" lon="1.034150000"><ele>0</ele><time>2010-01-01T02:21:54Z</time></trkpt>
<trkpt lat="48.75195000" lon="1.034850000"><ele>0</ele><time>2010-01-01T02:22:18Z</time></trkpt>
<trkpt lat="48.75220000" lon="1.035270000"><ele>0</ele><time>2010-01-01T02:22:33Z</time></trkpt>
<trkpt lat="48.75264000" lon="1.035940000"><ele>0</ele><time>2010-01-01T02:22:58Z</time></trkpt>
<trkpt lat="48.75299000" lon="1.036410000"><ele>0</ele><time>2010-01-01T02:23:17Z</time></trkpt>
<trkpt lat="48.75376000" lon="1.037310000"><ele>0</ele><time>2010-01-01T02:23:56Z</time></trkpt>
<trkpt lat="48.75417000" lon="1.037710000"><ele>0</ele><time>2010-01-01T02:24:15Z</time></trkpt>
<trkpt lat="48.75462000" lon="1.038120000"><ele>0</ele><time>2010-01-01T02:24:36Z</time></trkpt>
<trkpt lat="48.75533000" lon="1.038720000"><ele>0</ele><time>2010-01-01T02:25:09Z</time></trkpt>
<trkpt lat="48.75541000" lon="1.038780000"><ele>0</ele><time>2010-01-01T02:25:12Z</time></trkpt>
<trkpt lat="48.75675000" lon="1.039890000"><ele>0</ele><time>2010-01-01T02:26:14Z</time></trkpt>
<trkpt lat="48.75716000" lon="1.040270000"><ele>0</ele><time>2010-01-01T02:26:33Z</time></trkpt>
<trkpt lat="48.75748000" lon="1.040590000"><ele>0</ele><time>2010-01-01T02:26:48Z</time></trkpt>
<trkpt lat="48.75788000" lon="1.041020000"><ele>0</ele><time>2010-01-01T02:27:08Z</time></trkpt>
<trkpt lat="48.75817000" lon="1.041370000"><ele>0</ele><time>2010-01-01T02:27:23Z</time></trkpt>
<trkpt lat="48.75862000" lon="1.041970000"><ele>0</ele><time>2010-01-01T02:27:47Z</time></trkpt>
<trkpt lat="48.75913000" lon="1.042780000"><ele>0</ele><time>2010-01-01T02:28:16Z</time></trkpt>
<trkpt lat="48.75936000" lon="1.043180000"><ele>0</ele><time>2010-01-01T02:28:30Z</time></trkpt>
<trkpt lat="48.75966000" lon="1.043770000"><ele>0</ele><time>2010-01-01T02:28:50Z</time></trkpt>
<trkpt lat="48.76002000" lon="1.044570000"><ele>0</ele><time>2010-01-01T02:29:15Z</time></trkpt>
<trkpt lat="48.76019000" lon="1.045010000"><ele>0</ele><time>2010-01-01T02:29:29Z</time></trkpt>
<trkpt lat="48.76026000" lon="1.045170000"><ele>0</ele><time>2010-01-01T02:29:34Z</time></trkpt>
<trkpt lat="48.76155000" lon="1.048980000"><ele>0</ele><time>2010-01-01T02:31:27Z</time></trkpt>
<trkpt lat="48.76299000" lon="1.053450000"><ele>0</ele><time>2010-01-01T02:33:38Z</time></trkpt>
<trkpt lat="48.76411000" lon="1.056790000"><ele>0</ele><time>2010-01-01T02:35:17Z</time></trkpt>
<trkpt lat="48.76427000" lon="1.057310000"><ele>0</ele><time>2010-01-01T02:35:32Z</time></trkpt>
<trkpt lat="48.76430000" lon="1.057440000"><ele>0</ele><time>2010-01-01T02:35:36Z</time></trkpt>
<trkpt lat="48.76432000" lon="1.057500000"><ele>0</ele><time>2010-01-01T02:35:38Z</time></trkpt>
<trkpt lat="48.76458000" lon="1.058490000"><ele>0</ele><time>2010-01-01T02:36:06Z</time></trkpt>
<trkpt lat="48.76498000" lon="1.060260000"><ele>0</ele><time>2010-01-01T02:36:55Z</time></trkpt>
<trkpt lat="48.76526000" lon="1.061670000"><ele>0</ele><time>2010-01-01T02:37:34Z</time></trkpt>
<trkpt lat="48.76615000" lon="1.067070000"><ele>0</ele><time>2010-01-01T02:40:01Z</time></trkpt>
<trkpt lat="48.76624000" lon="1.067540000"><ele>0</ele><time>2010-01-01T02:40:14Z</time></trkpt>
<trkpt lat="48.76671000" lon="1.070400000"><ele>0</ele><time>2010-01-01T02:41:32Z</time></trkpt>
<trkpt lat="48.76673000" lon="1.070470000"><ele>0</ele><time>2010-01-01T02:41:34Z</time></trkpt>
<trkpt lat="48.76684000" lon="1.071150000"><ele>0</ele><time>2010-01-01T02:41:52Z</time></trkpt>
<trkpt lat="48.76688000" lon="1.071470000"><ele>0</ele><time>2010-01-01T02:42:01Z</time></trkpt>
<trkpt lat="48.76721000" lon="1.073350000"><ele>0</ele><time>2010-01-01T02:42:52Z</time></trkpt>
<trkpt lat="48.76743000" lon="1.074390000"><ele>0</ele><time>2010-01-01T02:43:21Z</time></trkpt>
<trkpt lat="48.77002000" lon="1.085350000"><ele>0</ele><time>2010-01-01T02:48:28Z</time></trkpt>
<trkpt lat="48.77092000" lon="1.088810000"><ele>0</ele><time>2010-01-01T02:50:06Z</time></trkpt>
<trkpt lat="48.77146000" lon="1.091270000"><ele>0</ele><time>2010-01-01T02:51:15Z</time></trkpt>
<trkpt lat="48.77394000" lon="1.102020000"><ele>0</ele><time>2010-01-01T02:56:15Z</time></trkpt>
<trkpt lat="48.77395000" lon="1.102080000"><ele>0</ele><time>2010-01-01T02:56:17Z</time></trkpt>
<trkpt lat="48.77431000" lon="1.103650000"><ele>0</ele><time>2010-01-01T02:57:00Z</time></trkpt>
<trkpt lat="48.77441000" lon="1.104190000"><ele>0</ele><time>2010-01-01T02:57:15Z</time></trkpt>
<trkpt lat="48.77448000" lon="1.104880000"><ele>0</ele><time>2010-01-01T02:57:34Z</time></trkpt>
<trkpt lat="48.77449000" lon="1.105220000"><ele>0</ele><time>2010-01-01T02:57:43Z</time></trkpt>
<trkpt lat="48.77448000" lon="1.105950000"><ele>0</ele><time>2010-01-01T02:58:02Z</time></trkpt>
<trkpt lat="48.77391000" lon="1.114040000"><ele>0</ele><time>2010-01-01T03:01:37Z</time></trkpt>
<trkpt lat="48.77378000" lon="1.116250000"><ele>0</ele><time>2010-01-01T03:02:35Z</time></trkpt>
<trkpt lat="48.77361000" lon="1.118460000"><ele>0</ele><time>2010-01-01T03:03:34Z</time></trkpt>
<trkpt lat="48.77345000" lon="1.120960000"><ele>0</ele><time>2010-01-01T03:04:40Z</time></trkpt>
<trkpt lat="48.77342000" lon="1.121250000"><ele>0</ele><time>2010-01-01T03:04:48Z</time></trkpt>
<trkpt lat="48.77155000" lon="1.147660000"><ele>0</ele><time>2010-01-01T03:16:29Z</time></trkpt>
<trkpt lat="48.77117000" lon="1.152490000"><ele>0</ele><time>2010-01-01T03:18:37Z</time></trkpt>
<trkpt lat="48.77105000" lon="1.154360000"><ele>0</ele><time>2010-01-01T03:19:26Z</time></trkpt>
<trkpt lat="48.77103000" lon="1.154860000"><ele>0</ele><time>2010-01-01T03:19:40Z</time></trkpt>
<trkpt lat="48.77102000" lon="1.155680000"><ele>0</ele><time>2010-01-01T03:20:01Z</time></trkpt>
<trkpt lat="48.77103000" lon="1.156240000"><ele>0</ele><time>2010-01-01T03:20:16Z</time></trkpt>
<trkpt lat="48.77106000" lon="1.156890000"><ele>0</ele><time>2010-01-01T03:20:33Z</time></trkpt>
<trkpt lat="48.77108000" lon="1.157070000"><ele>0</ele><time>2010-01-01T03:20:38Z</time></trkpt>
<trkpt lat="48.77114000" lon="1.158070000"><ele>0</ele><time>2010-01-01T03:21:05Z</time></trkpt>
<trkpt lat="48.77140000" lon="1.160970000"><ele>0</ele><time>2010-01-01T03:22:22Z</time></trkpt>
<trkpt lat="48.77176000" lon="1.164570000"><ele>0</ele><time>2010-01-01T03:23:58Z</time></trkpt>
<trkpt lat="48.77187000" lon="1.165390000"><ele>0</ele><time>2010-01-01T03:24:20Z</time></trkpt>
<trkpt lat="48.77202000" lon="1.166030000"><ele>0</ele><time>2010-01-01T03:24:38Z</time></trkpt>
<trkpt lat="48.77220000" lon="1.166600000"><ele>0</ele><time>2010-01-01T03:24:55Z</time></trkpt>
<trkpt lat="48.77221000" lon="1.166650000"><ele>0</ele><time>2010-01-01T03:24:56Z</time></trkpt>
<trkpt lat="48.77230000" lon="1.166900000"><ele>0</ele><time>2010-01-01T03:25:03Z</time></trkpt>
<trkpt lat="48.77292000" lon="1.168190000"><ele>0</ele><time>2010-01-01T03:25:46Z</time></trkpt>
<trkpt lat="48.77334000" lon="1.168970000"><ele>0</ele><time>2010-01-01T03:26:12Z</time></trkpt>
<trkpt lat="48.77809000" lon="1.178600000"><ele>0</ele><time>2010-01-01T03:31:29Z</time></trkpt>
<trkpt lat="48.77850000" lon="1.179470000"><ele>0</ele><time>2010-01-01T03:31:58Z</time></trkpt>
<trkpt lat="48.77877000" lon="1.180000000"><ele>0</ele><time>2010-01-01T03:32:15Z</time></trkpt>
<trkpt lat="48.77883000" lon="1.180130000"><ele>0</ele><time>2010-01-01T03:32:20Z</time></trkpt>
<trkpt lat="48.77891000" lon="1.180280000"><ele>0</ele><time>2010-01-01T03:32:25Z</time></trkpt>
<trkpt lat="48.77895000" lon="1.180370000"><ele>0</ele><time>2010-01-01T03:32:27Z</time></trkpt>
<trkpt lat="48.77898000" lon="1.180420000"><ele>0</ele><time>2010-01-01T03:32:29Z</time></trkpt>
<trkpt lat="48.77944000" lon="1.181390000"><ele>0</ele><time>2010-01-01T03:33:01Z</time></trkpt>
<trkpt lat="48.77969000" lon="1.182000000"><ele>0</ele><time>2010-01-01T03:33:20Z</time></trkpt>
<trkpt lat="48.77982000" lon="1.182350000"><ele>0</ele><time>2010-01-01T03:33:30Z</time></trkpt>
<trkpt lat="48.78008000" lon="1.183150000"><ele>0</ele><time>2010-01-01T03:33:54Z</time></trkpt>
<trkpt lat="48.78022000" lon="1.183690000"><ele>0</ele><time>2010-01-01T03:34:09Z</time></trkpt>
<trkpt lat="48.78036000" lon="1.184420000"><ele>0</ele><time>2010-01-01T03:34:29Z</time></trkpt>
<trkpt lat="48.78040000" lon="1.184670000"><ele>0</ele><time>2010-01-01T03:34:36Z</time></trkpt>
<trkpt lat="48.78047000" lon="1.185230000"><ele>0</ele><time>2010-01-01T03:34:51Z</time></trkpt>
<trkpt lat="48.78054000" lon="1.186060000"><ele>0</ele><time>2010-01-01T03:35:13Z</time></trkpt>
<trkpt lat="48.78056000" lon="1.186570000"><ele>0</ele><time>2010-01-01T03:35:27Z</time></trkpt>
<trkpt lat="48.78056000" lon="1.191840000"><ele>0</ele><time>2010-01-01T03:37:46Z</time></trkpt>
<trkpt lat="48.78058000" lon="1.192370000"><ele>0</ele><time>2010-01-01T03:38:00Z</time></trkpt>
<trkpt lat="48.78063000" lon="1.193070000"><ele>0</ele><time>2010-01-01T03:38:18Z</time></trkpt>
<trkpt lat="48.78063000" lon="1.193340000"><ele>0</ele><time>2010-01-01T03:38:25Z</time></trkpt>
<trkpt lat="48.78055000" lon="1.193420000"><ele>0</ele><time>2010-01-01T03:38:29Z</time></trkpt>
<trkpt lat="48.78049000" lon="1.193520000"><ele>0</ele><time>2010-01-01T03:38:33Z</time></trkpt>
<trkpt lat="48.78043000" lon="1.193700000"><ele>0</ele><time>2010-01-01T03:38:38Z</time></trkpt>
<trkpt lat="48.78042000" lon="1.193770000"><ele>0</ele><time>2010-01-01T03:38:40Z</time></trkpt>
<trkpt lat="48.78042000" lon="1.193980000"><ele>0</ele><time>2010-01-01T03:38:45Z</time></trkpt>
<trkpt lat="48.78043000" lon="1.194010000"><ele>0</ele><time>2010-01-01T03:38:46Z</time></trkpt>
<trkpt lat="48.78043000" lon="1.194040000"><ele>0</ele><time>2010-01-01T03:38:47Z</time></trkpt>
<trkpt lat="48.78045000" lon="1.194150000"><ele>0</ele><time>2010-01-01T03:38:50Z</time></trkpt>
<trkpt lat="48.78047000" lon="1.194200000"><ele>0</ele><time>2010-01-01T03:38:52Z</time></trkpt>
<trkpt lat="48.78049000" lon="1.194240000"><ele>0</ele><time>2010-01-01T03:38:53Z</time></trkpt>
<trkpt lat="48.78051000" lon="1.194290000"><ele>0</ele><time>2010-01-01T03:38:55Z</time></trkpt>
<trkpt lat="48.78054000" lon="1.194330000"><ele>0</ele><time>2010-01-01T03:38:56Z</time></trkpt>
<trkpt lat="48.78056000" lon="1.194370000"><ele>0</ele><time>2010-01-01T03:38:57Z</time></trkpt>
<trkpt lat="48.78059000" lon="1.194400000"><ele>0</ele><time>2010-01-01T03:38:59Z</time></trkpt>
<trkpt lat="48.78062000" lon="1.194420000"><ele>0</ele><time>2010-01-01T03:39:00Z</time></trkpt>
<trkpt lat="48.78064000" lon="1.194440000"><ele>0</ele><time>2010-01-01T03:39:01Z</time></trkpt>
<trkpt lat="48.78067000" lon="1.194460000"><ele>0</ele><time>2010-01-01T03:39:02Z</time></trkpt>
<trkpt lat="48.78069000" lon="1.194470000"><ele>0</ele><time>2010-01-01T03:39:03Z</time></trkpt>
<trkpt lat="48.78078000" lon="1.194500000"><ele>0</ele><time>2010-01-01T03:39:07Z</time></trkpt>
<trkpt lat="48.78084000" lon="1.194500000"><ele>0</ele><time>2010-01-01T03:39:09Z</time></trkpt>
<trkpt lat="48.78095000" lon="1.194470000"><ele>0</ele><time>2010-01-01T03:39:14Z</time></trkpt>
<trkpt lat="48.78098000" lon="1.194440000"><ele>0</ele><time>2010-01-01T03:39:15Z</time></trkpt>
<trkpt lat="48.78101000" lon="1.194420000"><ele>0</ele><time>2010-01-01T03:39:17Z</time></trkpt>
<trkpt lat="48.78107000" lon="1.194360000"><ele>0</ele><time>2010-01-01T03:39:20Z</time></trkpt>
<trkpt lat="48.78120000" lon="1.194400000"><ele>0</ele><time>2010-01-01T03:39:25Z</time></trkpt>
<trkpt lat="48.78129000" lon="1.194450000"><ele>0</ele><time>2010-01-01T03:39:29Z</time></trkpt>
<trkpt lat="48.78155000" lon="1.194690000"><ele>0</ele><time>2010-01-01T03:39:41Z</time></trkpt>
<trkpt lat="48.78262000" lon="1.195740000"><ele>0</ele><time>2010-01-01T03:40:32Z</time></trkpt>
<trkpt lat="48.78296000" lon="1.196040000"><ele>0</ele><time>2010-01-01T03:40:48Z</time></trkpt>
<trkpt lat="48.78309000" lon="1.196140000"><ele>0</ele><time>2010-01-01T03:40:53Z</time></trkpt>
<trkpt lat="48.78327000" lon="1.196250000"><ele>0</ele><time>2010-01-01T03:41:01Z</time></trkpt>
<trkpt lat="48.78338000" lon="1.196310000"><ele>0</ele><time>2010-01-01T03:41:06Z</time></trkpt>
<trkpt lat="48.78360000" lon="1.196400000"><ele>0</ele><time>2010-01-01T03:41:15Z</time></trkpt>
<trkpt lat="48.78380000" lon="1.196460000"><ele>0</ele><time>2010-01-01T03:41:23Z</time></trkpt>
<trkpt lat="48.78412000" lon="1.196510000"><ele>0</ele><time>2010-01-01T03:41:36Z</time></trkpt>
<trkpt lat="48.78429000" lon="1.196510000"><ele>0</ele><time>2010-01-01T03:41:43Z</time></trkpt>
<trkpt lat="48.78444000" lon="1.196500000"><ele>0</ele><time>2010-01-01T03:41:49Z</time></trkpt>
<trkpt lat="48.78464000" lon="1.196460000"><ele>0</ele><time>2010-01-01T03:41:57Z</time></trkpt>
<trkpt lat="48.78491000" lon="1.196380000"><ele>0</ele><time>2010-01-01T03:42:08Z</time></trkpt>
<trkpt lat="48.78521000" lon="1.196240000"><ele>0</ele><time>2010-01-01T03:42:21Z</time></trkpt>
<trkpt lat="48.78598000" lon="1.195840000"><ele>0</ele><time>2010-01-01T03:42:53Z</time></trkpt>
<trkpt lat="48.78618000" lon="1.195750000"><ele>0</ele><time>2010-01-01T03:43:01Z</time></trkpt>
<trkpt lat="48.78630000" lon="1.195710000"><ele>0</ele><time>2010-01-01T03:43:06Z</time></trkpt>
<trkpt lat="48.78662000" lon="1.195620000"><ele>0</ele><time>2010-01-01T03:43:19Z</time></trkpt>
<trkpt lat="48.78718000" lon="1.195530000"><ele>0</ele><time>2010-01-01T03:43:42Z</time></trkpt>
<trkpt lat="48.78750000" lon="1.195490000"><ele>0</ele><time>2010-01-01T03:43:55Z</time></trkpt>
<trkpt lat="48.78788000" lon="1.195420000"><ele>0</ele><time>2010-01-01T03:44:10Z</time></trkpt>
<trkpt lat="48.78831000" lon="1.195360000"><ele>0</ele><time>2010-01-01T03:44:27Z</time></trkpt>
<trkpt lat="48.78852000" lon="1.195320000"><ele>0</ele><time>2010-01-01T03:44:36Z</time></trkpt>
<trkpt lat="48.78879000" lon="1.195290000"><ele>0</ele><time>2010-01-01T03:44:47Z</time></trkpt>
<trkpt lat="48.79018000" lon="1.195080000"><ele>0</ele><time>2010-01-01T03:45:43Z</time></trkpt>
<trkpt lat="48.79044000" lon="1.195050000"><ele>0</ele><time>2010-01-01T03:45:53Z</time></trkpt>
<trkpt lat="48.79473000" lon="1.194410000"><ele>0</ele><time>2010-01-01T03:48:46Z</time></trkpt>
<trkpt lat="48.79532000" lon="1.194290000"><ele>0</ele><time>2010-01-01T03:49:09Z</time></trkpt>
<trkpt lat="48.79566000" lon="1.194210000"><ele>0</ele><time>2010-01-01T03:49:23Z</time></trkpt>
<trkpt lat="48.79612000" lon="1.194080000"><ele>0</ele><time>2010-01-01T03:49:42Z</time></trkpt>
<trkpt lat="48.79681000" lon="1.193840000"><ele>0</ele><time>2010-01-01T03:50:10Z</time></trkpt>
<trkpt lat="48.79725000" lon="1.193660000"><ele>0</ele><time>2010-01-01T03:50:29Z</time></trkpt>
<trkpt lat="48.79782000" lon="1.193410000"><ele>0</ele><time>2010-01-01T03:50:52Z</time></trkpt>
<trkpt lat="48.79822000" lon="1.193210000"><ele>0</ele><time>2010-01-01T03:51:09Z</time></trkpt>
<trkpt lat="48.80025000" lon="1.192080000"><ele>0</ele><time>2010-01-01T03:52:36Z</time></trkpt>
<trkpt lat="48.80091000" lon="1.191750000"><ele>0</ele><time>2010-01-01T03:53:04Z</time></trkpt>
<trkpt lat="48.80178000" lon="1.191390000"><ele>0</ele><time>2010-01-01T03:53:40Z</time></trkpt>
<trkpt lat="48.80258000" lon="1.191140000"><ele>0</ele><time>2010-01-01T03:54:12Z</time></trkpt>
<trkpt lat="48.80292000" lon="1.191050000"><ele>0</ele><time>2010-01-01T03:54:26Z</time></trkpt>
<trkpt lat="48.80317000" lon="1.191000000"><ele>0</ele><time>2010-01-01T03:54:36Z</time></trkpt>
<trkpt lat="48.80350000" lon="1.190920000"><ele>0</ele><time>2010-01-01T03:54:50Z</time></trkpt>
<trkpt lat="48.80398000" lon="1.190840000"><ele>0</ele><time>2010-01-01T03:55:09Z</time></trkpt>
<trkpt lat="48.80456000" lon="1.190770000"><ele>0</ele><time>2010-01-01T03:55:32Z</time></trkpt>
<trkpt lat="48.80513000" lon="1.190730000"><ele>0</ele><time>2010-01-01T03:55:55Z</time></trkpt>
<trkpt lat="48.80571000" lon="1.190720000"><ele>0</ele><time>2010-01-01T03:56:18Z</time></trkpt>
<trkpt lat="48.80595000" lon="1.190730000"><ele>0</ele><time>2010-01-01T03:56:28Z</time></trkpt>
<trkpt lat="48.80630000" lon="1.190760000"><ele>0</ele><time>2010-01-01T03:56:42Z</time></trkpt>
<trkpt lat="48.80654000" lon="1.190770000"><ele>0</ele><time>2010-01-01T03:56:52Z</time></trkpt>
<trkpt lat="48.80724000" lon="1.190870000"><ele>0</ele><time>2010-01-01T03:57:20Z</time></trkpt>
<trkpt lat="48.80783000" lon="1.190980000"><ele>0</ele><time>2010-01-01T03:57:43Z</time></trkpt>
<trkpt lat="48.80817000" lon="1.191060000"><ele>0</ele><time>2010-01-01T03:57:57Z</time></trkpt>
<trkpt lat="48.80887000" lon="1.191260000"><ele>0</ele><time>2010-01-01T03:58:26Z</time></trkpt>
<trkpt lat="48.81339000" lon="1.192810000"><ele>0</ele><time>2010-01-01T04:01:31Z</time></trkpt>
<trkpt lat="48.81362000" lon="1.192870000"><ele>0</ele><time>2010-01-01T04:01:41Z</time></trkpt>
<trkpt lat="48.81406000" lon="1.193000000"><ele>0</ele><time>2010-01-01T04:01:59Z</time></trkpt>
<trkpt lat="48.81454000" lon="1.193100000"><ele>0</ele><time>2010-01-01T04:02:18Z</time></trkpt>
<trkpt lat="48.81500000" lon="1.193180000"><ele>0</ele><time>2010-01-01T04:02:36Z</time></trkpt>
<trkpt lat="48.81536000" lon="1.193230000"><ele>0</ele><time>2010-01-01T04:02:51Z</time></trkpt>
<trkpt lat="48.81606000" lon="1.193290000"><ele>0</ele><time>2010-01-01T04:03:19Z</time></trkpt>
<trkpt lat="48.81665000" lon="1.193310000"><ele>0</ele><time>2010-01-01T04:03:43Z</time></trkpt>
<trkpt lat="48.81737000" lon="1.193280000"><ele>0</ele><time>2010-01-01T04:04:11Z</time></trkpt>
<trkpt lat="48.81771000" lon="1.193250000"><ele>0</ele><time>2010-01-01T04:04:25Z</time></trkpt>
<trkpt lat="48.81804000" lon="1.193210000"><ele>0</ele><time>2010-01-01T04:04:38Z</time></trkpt>
<trkpt lat="48.81876000" lon="1.193090000"><ele>0</ele><time>2010-01-01T04:05:07Z</time></trkpt>
<trkpt lat="48.81898000" lon="1.193040000"><ele>0</ele><time>2010-01-01T04:05:16Z</time></trkpt>
<trkpt lat="48.81954000" lon="1.192890000"><ele>0</ele><time>2010-01-01T04:05:39Z</time></trkpt>
<trkpt lat="48.81990000" lon="1.192780000"><ele>0</ele><time>2010-01-01T04:05:54Z</time></trkpt>
<trkpt lat="48.82055000" lon="1.192560000"><ele>0</ele><time>2010-01-01T04:06:20Z</time></trkpt>
<trkpt lat="48.82126000" lon="1.192260000"><ele>0</ele><time>2010-01-01T04:06:50Z</time></trkpt>
<trkpt lat="48.82216000" lon="1.191790000"><ele>0</ele><time>2010-01-01T04:07:28Z</time></trkpt>
<trkpt lat="48.82249000" lon="1.191600000"><ele>0</ele><time>2010-01-01T04:07:42Z</time></trkpt>
<trkpt lat="48.82324000" lon="1.191120000"><ele>0</ele><time>2010-01-01T04:08:15Z</time></trkpt>
<trkpt lat="48.83202000" lon="1.184890000"><ele>0</ele><time>2010-01-01T04:14:43Z</time></trkpt>
<trkpt lat="48.83254000" lon="1.184540000"><ele>0</ele><time>2010-01-01T04:15:05Z</time></trkpt>
<trkpt lat="48.83326000" lon="1.184110000"><ele>0</ele><time>2010-01-01T04:15:36Z</time></trkpt>
<trkpt lat="48.83367000" lon="1.183890000"><ele>0</ele><time>2010-01-01T04:15:54Z</time></trkpt>
<trkpt lat="48.83453000" lon="1.183480000"><ele>0</ele><time>2010-01-01T04:16:30Z</time></trkpt>
<trkpt lat="48.83497000" lon="1.183310000"><ele>0</ele><time>2010-01-01T04:16:48Z</time></trkpt>
<trkpt lat="48.83542000" lon="1.183150000"><ele>0</ele><time>2010-01-01T04:17:06Z</time></trkpt>
<trkpt lat="48.83618000" lon="1.182930000"><ele>0</ele><time>2010-01-01T04:17:37Z</time></trkpt>
<trkpt lat="48.83654000" lon="1.182840000"><ele>0</ele><time>2010-01-01T04:17:52Z</time></trkpt>
<trkpt lat="48.83739000" lon="1.182660000"><ele>0</ele><time>2010-01-01T04:18:26Z</time></trkpt>
<trkpt lat="48.83781000" lon="1.182590000"><ele>0</ele><time>2010-01-01T04:18:43Z</time></trkpt>
<trkpt lat="48.86083000" lon="1.178130000"><ele>0</ele><time>2010-01-01T04:34:12Z</time></trkpt>
<trkpt lat="48.86088000" lon="1.178110000"><ele>0</ele><time>2010-01-01T04:34:14Z</time></trkpt>
<trkpt lat="48.88429000" lon="1.173520000"><ele>0</ele><time>2010-01-01T04:49:59Z</time></trkpt>
<trkpt lat="48.88443000" lon="1.173580000"><ele>0</ele><time>2010-01-01T04:50:05Z</time></trkpt>
<trkpt lat="48.88494000" lon="1.173520000"><ele>0</ele><time>2010-01-01T04:50:26Z</time></trkpt>
<trkpt lat="48.88509000" lon="1.173520000"><ele>0</ele><time>2010-01-01T04:50:32Z</time></trkpt>
<trkpt lat="48.88520000" lon="1.173530000"><ele>0</ele><time>2010-01-01T04:50:36Z</time></trkpt>
<trkpt lat="48.88533000" lon="1.173550000"><ele>0</ele><time>2010-01-01T04:50:41Z</time></trkpt>
<trkpt lat="48.88549000" lon="1.173600000"><ele>0</ele><time>2010-01-01T04:50:48Z</time></trkpt>
<trkpt lat="48.88565000" lon="1.173660000"><ele>0</ele><time>2010-01-01T04:50:54Z</time></trkpt>
<trkpt lat="48.88577000" lon="1.173720000"><ele>0</ele><time>2010-01-01T04:50:59Z</time></trkpt>
<trkpt lat="48.88584000" lon="1.173770000"><ele>0</ele><time>2010-01-01T04:51:02Z</time></trkpt>
<trkpt lat="48.88590000" lon="1.173800000"><ele>0</ele><time>2010-01-01T04:51:05Z</time></trkpt>
<trkpt lat="48.88604000" lon="1.173910000"><ele>0</ele><time>2010-01-01T04:51:11Z</time></trkpt>
<trkpt lat="48.88626000" lon="1.174120000"><ele>0</ele><time>2010-01-01T04:51:22Z</time></trkpt>
<trkpt lat="48.88649000" lon="1.174400000"><ele>0</ele><time>2010-01-01T04:51:33Z</time></trkpt>
<trkpt lat="48.88666000" lon="1.174670000"><ele>0</ele><time>2010-01-01T04:51:43Z</time></trkpt>
<trkpt lat="48.88710000" lon="1.175520000"><ele>0</ele><time>2010-01-01T04:52:12Z</time></trkpt>
<trkpt lat="48.88717000" lon="1.175620000"><ele>0</ele><time>2010-01-01T04:52:16Z</time></trkpt>
<trkpt lat="48.88727000" lon="1.175780000"><ele>0</ele><time>2010-01-01T04:52:21Z</time></trkpt>
<trkpt lat="48.88732000" lon="1.175840000"><ele>0</ele><time>2010-01-01T04:52:24Z</time></trkpt>
<trkpt lat="48.88746000" lon="1.176030000"><ele>0</ele><time>2010-01-01T04:52:31Z</time></trkpt>
<trkpt lat="48.88757000" lon="1.176130000"><ele>0</ele><time>2010-01-01T04:52:37Z</time></trkpt>
<trkpt lat="48.88774000" lon="1.176300000"><ele>0</ele><time>2010-01-01T04:52:45Z</time></trkpt>
<trkpt lat="48.88781000" lon="1.176400000"><ele>0</ele><time>2010-01-01T04:52:49Z</time></trkpt>
<trkpt lat="48.88780000" lon="1.176470000"><ele>0</ele><time>2010-01-01T04:52:51Z</time></trkpt>
<trkpt lat="48.88780000" lon="1.176600000"><ele>0</ele><time>2010-01-01T04:52:54Z</time></trkpt>
<trkpt lat="48.88783000" lon="1.176720000"><ele>0</ele><time>2010-01-01T04:52:57Z</time></trkpt>
<trkpt lat="48.88785000" lon="1.176760000"><ele>0</ele><time>2010-01-01T04:52:59Z</time></trkpt>
<trkpt lat="48.88787000" lon="1.176790000"><ele>0</ele><time>2010-01-01T04:53:00Z</time></trkpt>
<trkpt lat="48.88789000" lon="1.176810000"><ele>0</ele><time>2010-01-01T04:53:01Z</time></trkpt>
<trkpt lat="48.88792000" lon="1.176850000"><ele>0</ele><time>2010-01-01T04:53:02Z</time></trkpt>
<trkpt lat="48.88800000" lon="1.176900000"><ele>0</ele><time>2010-01-01T04:53:06Z</time></trkpt>
<trkpt lat="48.88805000" lon="1.176920000"><ele>0</ele><time>2010-01-01T04:53:08Z</time></trkpt>
<trkpt lat="48.88809000" lon="1.176920000"><ele>0</ele><time>2010-01-01T04:53:09Z</time></trkpt>
<trkpt lat="48.88812000" lon="1.176910000"><ele>0</ele><time>2010-01-01T04:53:11Z</time></trkpt>
<trkpt lat="48.88816000" lon="1.176890000"><ele>0</ele><time>2010-01-01T04:53:12Z</time></trkpt>
<trkpt lat="48.88818000" lon="1.176870000"><ele>0</ele><time>2010-01-01T04:53:13Z</time></trkpt>
<trkpt lat="48.88824000" lon="1.176790000"><ele>0</ele><time>2010-01-01T04:53:17Z</time></trkpt>
<trkpt lat="48.88828000" lon="1.176720000"><ele>0</ele><time>2010-01-01T04:53:19Z</time></trkpt>
<trkpt lat="48.88829000" lon="1.176670000"><ele>0</ele><time>2010-01-01T04:53:20Z</time></trkpt>
<trkpt lat="48.88831000" lon="1.176610000"><ele>0</ele><time>2010-01-01T04:53:22Z</time></trkpt>
<trkpt lat="48.88831000" lon="1.176380000"><ele>0</ele><time>2010-01-01T04:53:28Z</time></trkpt>
<trkpt lat="48.88830000" lon="1.176330000"><ele>0</ele><time>2010-01-01T04:53:30Z</time></trkpt>
<trkpt lat="48.88826000" lon="1.176250000"><ele>0</ele><time>2010-01-01T04:53:32Z</time></trkpt>
<trkpt lat="48.88815000" lon="1.176140000"><ele>0</ele><time>2010-01-01T04:53:37Z</time></trkpt>
<trkpt lat="48.88811000" lon="1.176120000"><ele>0</ele><time>2010-01-01T04:53:39Z</time></trkpt>
<trkpt lat="48.88805000" lon="1.176120000"><ele>0</ele><time>2010-01-01T04:53:42Z</time></trkpt>
<trkpt lat="48.88802000" lon="1.176010000"><ele>0</ele><time>2010-01-01T04:53:45Z</time></trkpt>
<trkpt lat="48.88781000" lon="1.175080000"><ele>0</ele><time>2010-01-01T04:54:11Z</time></trkpt>
<trkpt lat="48.88742000" lon="1.172850000"><ele>0</ele><time>2010-01-01T04:55:11Z</time></trkpt>
<trkpt lat="48.88742000" lon="1.172820000"><ele>0</ele><time>2010-01-01T04:55:12Z</time></trkpt>
<trkpt lat="48.88707000" lon="1.170830000"><ele>0</ele><time>2010-01-01T04:56:06Z</time></trkpt>
<trkpt lat="48.88707000" lon="1.170660000"><ele>0</ele><time>2010-01-01T04:56:11Z</time></trkpt>
<trkpt lat="48.88704000" lon="1.170460000"><ele>0</ele><time>2010-01-01T04:56:16Z</time></trkpt>
<trkpt lat="48.88702000" lon="1.170370000"><ele>0</ele><time>2010-01-01T04:56:19Z</time></trkpt>
<trkpt lat="48.88698000" lon="1.170000000"><ele>0</ele><time>2010-01-01T04:56:29Z</time></trkpt>
<trkpt lat="48.88698000" lon="1.169830000"><ele>0</ele><time>2010-01-01T04:56:33Z</time></trkpt>
<trkpt lat="48.88699000" lon="1.169740000"><ele>0</ele><time>2010-01-01T04:56:35Z</time></trkpt>
<trkpt lat="48.88703000" lon="1.169680000"><ele>0</ele><time>2010-01-01T04:56:38Z</time></trkpt>
<trkpt lat="48.88704000" lon="1.169660000"><ele>0</ele><time>2010-01-01T04:56:38Z</time></trkpt>
<trkpt lat="48.88708000" lon="1.169530000"><ele>0</ele><time>2010-01-01T04:56:42Z</time></trkpt>
<trkpt lat="48.88708000" lon="1.169490000"><ele>0</ele><time>2010-01-01T04:56:43Z</time></trkpt>
<trkpt lat="48.88709000" lon="1.169460000"><ele>0</ele><time>2010-01-01T04:56:44Z</time></trkpt>
<trkpt lat="48.88709000" lon="1.169390000"><ele>0</ele><time>2010-01-01T04:56:46Z</time></trkpt>
<trkpt lat="48.88708000" lon="1.169360000"><ele>0</ele><time>2010-01-01T04:56:47Z</time></trkpt>
<trkpt lat="48.88708000" lon="1.169280000"><ele>0</ele><time>2010-01-01T04:56:49Z</time></trkpt>
<trkpt lat="48.88706000" lon="1.169240000"><ele>0</ele><time>2010-01-01T04:56:50Z</time></trkpt>
<trkpt lat="48.88705000" lon="1.169200000"><ele>0</ele><time>2010-01-01T04:56:51Z</time></trkpt>
<trkpt lat="48.88701000" lon="1.169140000"><ele>0</ele><time>2010-01-01T04:56:54Z</time></trkpt>
<trkpt lat="48.88694000" lon="1.169070000"><ele>0</ele><time>2010-01-01T04:56:57Z</time></trkpt>
<trkpt lat="48.88691000" lon="1.169060000"><ele>0</ele><time>2010-01-01T04:56:58Z</time></trkpt>
<trkpt lat="48.88690000" lon="1.169050000"><ele>0</ele><time>2010-01-01T04:56:59Z</time></trkpt>
<trkpt lat="48.88688000" lon="1.169050000"><ele>0</ele><time>2010-01-01T04:56:59Z</time></trkpt>
<trkpt lat="48.88687000" lon="1.169040000"><ele>0</ele><time>2010-01-01T04:57:00Z</time></trkpt>
<trkpt lat="48.88684000" lon="1.169040000"><ele>0</ele><time>2010-01-01T04:57:01Z</time></trkpt>
<trkpt lat="48.88683000" lon="1.169030000"><ele>0</ele><time>2010-01-01T04:57:02Z</time></trkpt>
<trkpt lat="48.88680000" lon="1.168940000"><ele>0</ele><time>2010-01-01T04:57:04Z</time></trkpt>
<trkpt lat="48.88668000" lon="1.168430000"><ele>0</ele><time>2010-01-01T04:57:19Z</time></trkpt>
<trkpt lat="48.88660000" lon="1.167940000"><ele>0</ele><time>2010-01-01T04:57:32Z</time></trkpt>
<trkpt lat="48.88654000" lon="1.167800000"><ele>0</ele><time>2010-01-01T04:57:36Z</time></trkpt>
<trkpt lat="48.88648000" lon="1.167290000"><ele>0</ele><time>2010-01-01T04:57:50Z</time></trkpt>
<trkpt lat="48.88238000" lon="1.143610000"><ele>0</ele><time>2010-01-01T05:08:34Z</time></trkpt>
<trkpt lat="48.88231000" lon="1.143260000"><ele>0</ele><time>2010-01-01T05:08:44Z</time></trkpt>
<trkpt lat="48.88228000" lon="1.143180000"><ele>0</ele><time>2010-01-01T05:08:46Z</time></trkpt>
<trkpt lat="48.88221000" lon="1.142940000"><ele>0</ele><time>2010-01-01T05:08:53Z</time></trkpt>
<trkpt lat="48.88154000" lon="1.140990000"><ele>0</ele><time>2010-01-01T05:09:51Z</time></trkpt>
<trkpt lat="48.88132000" lon="1.140130000"><ele>0</ele><time>2010-01-01T05:10:16Z</time></trkpt>
<trkpt lat="48.88122000" lon="1.139860000"><ele>0</ele><time>2010-01-01T05:10:24Z</time></trkpt>
<trkpt lat="48.88107000" lon="1.139510000"><ele>0</ele><time>2010-01-01T05:10:35Z</time></trkpt>
<trkpt lat="48.88081000" lon="1.138950000"><ele>0</ele><time>2010-01-01T05:10:53Z</time></trkpt>
<trkpt lat="48.88061000" lon="1.138570000"><ele>0</ele><time>2010-01-01T05:11:06Z</time></trkpt>
<trkpt lat="48.88058000" lon="1.138480000"><ele>0</ele><time>2010-01-01T05:11:08Z</time></trkpt>
<trkpt lat="48.88055000" lon="1.138260000"><ele>0</ele><time>2010-01-01T05:11:14Z</time></trkpt>
<trkpt lat="48.88059000" lon="1.134610000"><ele>0</ele><time>2010-01-01T05:12:50Z</time></trkpt>
<trkpt lat="48.88057000" lon="1.133890000"><ele>0</ele><time>2010-01-01T05:13:09Z</time></trkpt>
<trkpt lat="48.88002000" lon="1.129550000"><ele>0</ele><time>2010-01-01T05:15:06Z</time></trkpt>
<trkpt lat="48.87772000" lon="1.115460000"><ele>0</ele><time>2010-01-01T05:21:28Z</time></trkpt>
<trkpt lat="48.87750000" lon="1.114210000"><ele>0</ele><time>2010-01-01T05:22:02Z</time></trkpt>
<trkpt lat="48.87744000" lon="1.113760000"><ele>0</ele><time>2010-01-01T05:22:14Z</time></trkpt>
<trkpt lat="48.87672000" lon="1.109450000"><ele>0</ele><time>2010-01-01T05:24:11Z</time></trkpt>
<trkpt lat="48.87665000" lon="1.108960000"><ele>0</ele><time>2010-01-01T05:24:24Z</time></trkpt>
<trkpt lat="48.87640000" lon="1.107480000"><ele>0</ele><time>2010-01-01T05:25:04Z</time></trkpt>
<trkpt lat="48.87630000" lon="1.106810000"><ele>0</ele><time>2010-01-01T05:25:23Z</time></trkpt>
<trkpt lat="48.87547000" lon="1.101840000"><ele>0</ele><time>2010-01-01T05:27:38Z</time></trkpt>
<trkpt lat="48.87515000" lon="1.099730000"><ele>0</ele><time>2010-01-01T05:28:35Z</time></trkpt>
<trkpt lat="48.87489000" lon="1.098350000"><ele>0</ele><time>2010-01-01T05:29:12Z</time></trkpt>
<trkpt lat="48.87482000" lon="1.097860000"><ele>0</ele><time>2010-01-01T05:29:26Z</time></trkpt>
<trkpt lat="48.87475000" lon="1.097500000"><ele>0</ele><time>2010-01-01T05:29:35Z</time></trkpt>
<trkpt lat="48.87380000" lon="1.091710000"><ele>0</ele><time>2010-01-01T05:32:13Z</time></trkpt>
<trkpt lat="48.87364000" lon="1.090570000"><ele>0</ele><time>2010-01-01T05:32:43Z</time></trkpt>
<trkpt lat="48.87363000" lon="1.090530000"><ele>0</ele><time>2010-01-01T05:32:44Z</time></trkpt>
<trkpt lat="48.87357000" lon="1.090070000"><ele>0</ele><time>2010-01-01T05:32:57Z</time></trkpt>
<trkpt lat="48.87337000" lon="1.089040000"><ele>0</ele><time>2010-01-01T05:33:25Z</time></trkpt>
<trkpt lat="48.87272000" lon="1.085210000"><ele>0</ele><time>2010-01-01T05:35:09Z</time></trkpt>
<trkpt lat="48.87248000" lon="1.084080000"><ele>0</ele><time>2010-01-01T05:35:40Z</time></trkpt>
<trkpt lat="48.87232000" lon="1.083510000"><ele>0</ele><time>2010-01-01T05:35:57Z</time></trkpt>
<trkpt lat="48.87231000" lon="1.083420000"><ele>0</ele><time>2010-01-01T05:35:59Z</time></trkpt>
<trkpt lat="48.87197000" lon="1.082510000"><ele>0</ele><time>2010-01-01T05:36:27Z</time></trkpt>
<trkpt lat="48.87194000" lon="1.082390000"><ele>0</ele><time>2010-01-01T05:36:30Z</time></trkpt>
<trkpt lat="48.87192000" lon="1.082280000"><ele>0</ele><time>2010-01-01T05:36:33Z</time></trkpt>
<trkpt lat="48.87193000" lon="1.082170000"><ele>0</ele><time>2010-01-01T05:36:36Z</time></trkpt>
<trkpt lat="48.87195000" lon="1.082090000"><ele>0</ele><time>2010-01-01T05:36:38Z</time></trkpt>
<trkpt lat="48.87199000" lon="1.082030000"><ele>0</ele><time>2010-01-01T05:36:40Z</time></trkpt>
<trkpt lat="48.87200000" lon="1.082010000"><ele>0</ele><time>2010-01-01T05:36:41Z</time></trkpt>
<trkpt lat="48.87200000" lon="1.081990000"><ele>0</ele><time>2010-01-01T05:36:42Z</time></trkpt>
<trkpt lat="48.87201000" lon="1.081980000"><ele>0</ele><time>2010-01-01T05:36:42Z</time></trkpt>
<trkpt lat="48.87202000" lon="1.081960000"><ele>0</ele><time>2010-01-01T05:36:43Z</time></trkpt>
<trkpt lat="48.87202000" lon="1.081940000"><ele>0</ele><time>2010-01-01T05:36:43Z</time></trkpt>
<trkpt lat="48.87203000" lon="1.081920000"><ele>0</ele><time>2010-01-01T05:36:44Z</time></trkpt>
<trkpt lat="48.87203000" lon="1.081780000"><ele>0</ele><time>2010-01-01T05:36:48Z</time></trkpt>
<trkpt lat="48.87202000" lon="1.081760000"><ele>0</ele><time>2010-01-01T05:36:48Z</time></trkpt>
<trkpt lat="48.87202000" lon="1.081750000"><ele>0</ele><time>2010-01-01T05:36:49Z</time></trkpt>
<trkpt lat="48.87200000" lon="1.081710000"><ele>0</ele><time>2010-01-01T05:36:50Z</time></trkpt>
<trkpt lat="48.87200000" lon="1.081700000"><ele>0</ele><time>2010-01-01T05:36:50Z</time></trkpt>
<trkpt lat="48.87197000" lon="1.081670000"><ele>0</ele><time>2010-01-01T05:36:52Z</time></trkpt>
<trkpt lat="48.87196000" lon="1.081650000"><ele>0</ele><time>2010-01-01T05:36:52Z</time></trkpt>
<trkpt lat="48.87194000" lon="1.081630000"><ele>0</ele><time>2010-01-01T05:36:53Z</time></trkpt>
<trkpt lat="48.87192000" lon="1.081620000"><ele>0</ele><time>2010-01-01T05:36:54Z</time></trkpt>
<trkpt lat="48.87171000" lon="1.081030000"><ele>0</ele><time>2010-01-01T05:37:12Z</time></trkpt>
<trkpt lat="48.87167000" lon="1.080900000"><ele>0</ele><time>2010-01-01T05:37:16Z</time></trkpt>
<trkpt lat="48.87164000" lon="1.080840000"><ele>0</ele><time>2010-01-01T05:37:17Z</time></trkpt>
<trkpt lat="48.87135000" lon="1.079710000"><ele>0</ele><time>2010-01-01T05:37:49Z</time></trkpt>
<trkpt lat="48.87136000" lon="1.079630000"><ele>0</ele><time>2010-01-01T05:37:52Z</time></trkpt>
<trkpt lat="48.87131000" lon="1.079350000"><ele>0</ele><time>2010-01-01T05:37:59Z</time></trkpt>
<trkpt lat="48.87133000" lon="1.079310000"><ele>0</ele><time>2010-01-01T05:38:01Z</time></trkpt>
<trkpt lat="48.87133000" lon="1.079260000"><ele>0</ele><time>2010-01-01T05:38:02Z</time></trkpt>
<trkpt lat="48.87132000" lon="1.079220000"><ele>0</ele><time>2010-01-01T05:38:03Z</time></trkpt>
<trkpt lat="48.87132000" lon="1.079180000"><ele>0</ele><time>2010-01-01T05:38:04Z</time></trkpt>
<trkpt lat="48.87130000" lon="1.079150000"><ele>0</ele><time>2010-01-01T05:38:05Z</time></trkpt>
<trkpt lat="48.87128000" lon="1.079130000"><ele>0</ele><time>2010-01-01T05:38:06Z</time></trkpt>
<trkpt lat="48.87115000" lon="1.078770000"><ele>0</ele><time>2010-01-01T05:38:17Z</time></trkpt>
<trkpt lat="48.87112000" lon="1.078710000"><ele>0</ele><time>2010-01-01T05:38:19Z</time></trkpt>
<trkpt lat="48.87067000" lon="1.076310000"><ele>0</ele><time>2010-01-01T05:39:25Z</time></trkpt>
<trkpt lat="48.87007000" lon="1.073490000"><ele>0</ele><time>2010-01-01T05:40:43Z</time></trkpt>
<trkpt lat="48.87006000" lon="1.073420000"><ele>0</ele><time>2010-01-01T05:40:45Z</time></trkpt>
<trkpt lat="48.87007000" lon="1.073490000"><ele>0</ele><time>2010-01-01T05:40:46Z</time></trkpt>
<trkpt lat="48.86966000" lon="1.073630000"><ele>0</ele><time>2010-01-01T05:41:03Z</time></trkpt>
<trkpt lat="48.86961000" lon="1.073640000"><ele>0</ele><time>2010-01-01T05:41:05Z</time></trkpt>
<trkpt lat="48.86950000" lon="1.073630000"><ele>0</ele><time>2010-01-01T05:41:10Z</time></trkpt>
<trkpt lat="48.86943000" lon="1.073590000"><ele>0</ele><time>2010-01-01T05:41:13Z</time></trkpt>
<trkpt lat="48.86839000" lon="1.072730000"><ele>0</ele><time>2010-01-01T05:42:00Z</time></trkpt>
<trkpt lat="48.86735000" lon="1.071940000"><ele>0</ele><time>2010-01-01T05:42:47Z</time></trkpt>
<trkpt lat="48.86687000" lon="1.071540000"><ele>0</ele><time>2010-01-01T05:43:09Z</time></trkpt>
<trkpt lat="48.86682000" lon="1.071510000"><ele>0</ele><time>2010-01-01T05:43:11Z</time></trkpt>
<trkpt lat="48.86640000" lon="1.071160000"><ele>0</ele><time>2010-01-01T05:43:30Z</time></trkpt>
<trkpt lat="48.86587000" lon="1.070760000"><ele>0</ele><time>2010-01-01T05:43:54Z</time></trkpt>
<trkpt lat="48.86582000" lon="1.070680000"><ele>0</ele><time>2010-01-01T05:43:56Z</time></trkpt>
<trkpt lat="48.86357000" lon="1.068840000"><ele>0</ele><time>2010-01-01T05:45:39Z</time></trkpt>
<trkpt lat="48.86322000" lon="1.068530000"><ele>0</ele><time>2010-01-01T05:45:55Z</time></trkpt>
<trkpt lat="48.86268000" lon="1.068100000"><ele>0</ele><time>2010-01-01T05:46:19Z</time></trkpt>
<trkpt lat="48.86214000" lon="1.067700000"><ele>0</ele><time>2010-01-01T05:46:43Z</time></trkpt>
<trkpt lat="48.86205000" lon="1.067670000"><ele>0</ele><time>2010-01-01T05:46:47Z</time></trkpt>
<trkpt lat="48.86196000" lon="1.067580000"><ele>0</ele><time>2010-01-01T05:46:51Z</time></trkpt>
<trkpt lat="48.86054000" lon="1.066440000"><ele>0</ele><time>2010-01-01T05:47:56Z</time></trkpt>
<trkpt lat="48.86025000" lon="1.066180000"><ele>0</ele><time>2010-01-01T05:48:09Z</time></trkpt>
<trkpt lat="48.85999000" lon="1.065910000"><ele>0</ele><time>2010-01-01T05:48:22Z</time></trkpt>
<trkpt lat="48.85976000" lon="1.065640000"><ele>0</ele><time>2010-01-01T05:48:33Z</time></trkpt>
<trkpt lat="48.85954000" lon="1.065360000"><ele>0</ele><time>2010-01-01T05:48:45Z</time></trkpt>
<trkpt lat="48.85901000" lon="1.064730000"><ele>0</ele><time>2010-01-01T05:49:12Z</time></trkpt>
<trkpt lat="48.85886000" lon="1.064580000"><ele>0</ele><time>2010-01-01T05:49:19Z</time></trkpt>
<trkpt lat="48.85868000" lon="1.064420000"><ele>0</ele><time>2010-01-01T05:49:27Z</time></trkpt>
<trkpt lat="48.85853000" lon="1.064310000"><ele>0</ele><time>2010-01-01T05:49:34Z</time></trkpt>
<trkpt lat="48.85839000" lon="1.064220000"><ele>0</ele><time>2010-01-01T05:49:40Z</time></trkpt>
<trkpt lat="48.85781000" lon="1.063920000"><ele>0</ele><time>2010-01-01T05:50:05Z</time></trkpt>
<trkpt lat="48.85736000" lon="1.063620000"><ele>0</ele><time>2010-01-01T05:50:24Z</time></trkpt>
<trkpt lat="48.85714000" lon="1.063450000"><ele>0</ele><time>2010-01-01T05:50:34Z</time></trkpt>
<trkpt lat="48.85661000" lon="1.063000000"><ele>0</ele><time>2010-01-01T05:50:58Z</time></trkpt>
<trkpt lat="48.85610000" lon="1.062590000"><ele>0</ele><time>2010-01-01T05:51:22Z</time></trkpt>
<trkpt lat="48.85365000" lon="1.060500000"><ele>0</ele><time>2010-01-01T05:53:14Z</time></trkpt>
<trkpt lat="48.85328000" lon="1.060140000"><ele>0</ele><time>2010-01-01T05:53:32Z</time></trkpt>
<trkpt lat="48.85297000" lon="1.059790000"><ele>0</ele><time>2010-01-01T05:53:47Z</time></trkpt>
<trkpt lat="48.85289000" lon="1.059690000"><ele>0</ele><time>2010-01-01T05:53:51Z</time></trkpt>
<trkpt lat="48.85000000" lon="1.055660000"><ele>0</ele><time>2010-01-01T05:56:28Z</time></trkpt>
<trkpt lat="48.84959000" lon="1.055110000"><ele>0</ele><time>2010-01-01T05:56:50Z</time></trkpt>
<trkpt lat="48.84929000" lon="1.054590000"><ele>0</ele><time>2010-01-01T05:57:08Z</time></trkpt>
<trkpt lat="48.84918000" lon="1.054350000"><ele>0</ele><time>2010-01-01T05:57:16Z</time></trkpt>
<trkpt lat="48.84909000" lon="1.054120000"><ele>0</ele><time>2010-01-01T05:57:23Z</time></trkpt>
<trkpt lat="48.84888000" lon="1.053520000"><ele>0</ele><time>2010-01-01T05:57:41Z</time></trkpt>
<trkpt lat="48.84864000" lon="1.052940000"><ele>0</ele><time>2010-01-01T05:57:59Z</time></trkpt>
<trkpt lat="48.84851000" lon="1.052680000"><ele>0</ele><time>2010-01-01T05:58:08Z</time></trkpt>
<trkpt lat="48.84830000" lon="1.052340000"><ele>0</ele><time>2010-01-01T05:58:20Z</time></trkpt>
<trkpt lat="48.84811000" lon="1.052100000"><ele>0</ele><time>2010-01-01T05:58:30Z</time></trkpt>
<trkpt lat="48.84780000" lon="1.051770000"><ele>0</ele><time>2010-01-01T05:58:45Z</time></trkpt>
<trkpt lat="48.84759000" lon="1.051530000"><ele>0</ele><time>2010-01-01T05:58:55Z</time></trkpt>
<trkpt lat="48.84745000" lon="1.051260000"><ele>0</ele><time>2010-01-01T05:59:05Z</time></trkpt>
<trkpt lat="48.84730000" lon="1.050890000"><ele>0</ele><time>2010-01-01T05:59:16Z</time></trkpt>
<trkpt lat="48.84723000" lon="1.050610000"><ele>0</ele><time>2010-01-01T05:59:24Z</time></trkpt>
<trkpt lat="48.84720000" lon="1.050390000"><ele>0</ele><time>2010-01-01T05:59:30Z</time></trkpt>
<trkpt lat="48.84719000" lon="1.050080000"><ele>0</ele><time>2010-01-01T05:59:38Z</time></trkpt>
<trkpt lat="48.84721000" lon="1.048150000"><ele>0</ele><time>2010-01-01T06:00:29Z</time></trkpt>
<trkpt lat="48.84720000" lon="1.047930000"><ele>0</ele><time>2010-01-01T06:00:35Z</time></trkpt>
<trkpt lat="48.84712000" lon="1.047470000"><ele>0</ele><time>2010-01-01T06:00:47Z</time></trkpt>
<trkpt lat="48.84705000" lon="1.047250000"><ele>0</ele><time>2010-01-01T06:00:54Z</time></trkpt>
<trkpt lat="48.84694000" lon="1.047010000"><ele>0</ele><time>2010-01-01T06:01:01Z</time></trkpt>
<trkpt lat="48.84683000" lon="1.046800000"><ele>0</ele><time>2010-01-01T06:01:08Z</time></trkpt>
<trkpt lat="48.84602000" lon="1.045470000"><ele>0</ele><time>2010-01-01T06:01:56Z</time></trkpt>
<trkpt lat="48.84563000" lon="1.044910000"><ele>0</ele><time>2010-01-01T06:02:18Z</time></trkpt>
<trkpt lat="48.84528000" lon="1.044350000"><ele>0</ele><time>2010-01-01T06:02:38Z</time></trkpt>
<trkpt lat="48.84490000" lon="1.043890000"><ele>0</ele><time>2010-01-01T06:02:57Z</time></trkpt>
<trkpt lat="48.84429000" lon="1.043290000"><ele>0</ele><time>2010-01-01T06:03:26Z</time></trkpt>
<trkpt lat="48.84421000" lon="1.043170000"><ele>0</ele><time>2010-01-01T06:03:31Z</time></trkpt>
<trkpt lat="48.84414000" lon="1.043130000"><ele>0</ele><time>2010-01-01T06:03:34Z</time></trkpt>
<trkpt lat="48.84395000" lon="1.042780000"><ele>0</ele><time>2010-01-01T06:03:46Z</time></trkpt>
<trkpt lat="48.84382000" lon="1.042450000"><ele>0</ele><time>2010-01-01T06:03:56Z</time></trkpt>
<trkpt lat="48.84373000" lon="1.042160000"><ele>0</ele><time>2010-01-01T06:04:04Z</time></trkpt>
<trkpt lat="48.84338000" lon="1.040580000"><ele>0</ele><time>2010-01-01T06:04:48Z</time></trkpt>
<trkpt lat="48.84329000" lon="1.040250000"><ele>0</ele><time>2010-01-01T06:04:58Z</time></trkpt>
<trkpt lat="48.84277000" lon="1.038750000"><ele>0</ele><time>2010-01-01T06:05:42Z</time></trkpt>
<trkpt lat="48.84236000" lon="1.037640000"><ele>0</ele><time>2010-01-01T06:06:16Z</time></trkpt>
<trkpt lat="48.84215000" lon="1.037140000"><ele>0</ele><time>2010-01-01T06:06:32Z</time></trkpt>
<trkpt lat="48.84145000" lon="1.035800000"><ele>0</ele><time>2010-01-01T06:07:17Z</time></trkpt>
<trkpt lat="48.84017000" lon="1.033480000"><ele>0</ele><time>2010-01-01T06:08:36Z</time></trkpt>
<trkpt lat="48.83975000" lon="1.032680000"><ele>0</ele><time>2010-01-01T06:09:03Z</time></trkpt>
<trkpt lat="48.83866000" lon="1.030700000"><ele>0</ele><time>2010-01-01T06:10:11Z</time></trkpt>
<trkpt lat="48.83810000" lon="1.029620000"><ele>0</ele><time>2010-01-01T06:10:48Z</time></trkpt>
<trkpt lat="48.83804000" lon="1.029480000"><ele>0</ele><time>2010-01-01T06:10:52Z</time></trkpt>
<trkpt lat="48.83790000" lon="1.029190000"><ele>0</ele><time>2010-01-01T06:11:02Z</time></trkpt>
<trkpt lat="48.83742000" lon="1.027990000"><ele>0</ele><time>2010-01-01T06:11:39Z</time></trkpt>
<trkpt lat="48.83724000" lon="1.027570000"><ele>0</ele><time>2010-01-01T06:11:52Z</time></trkpt>
<trkpt lat="48.83717000" lon="1.027430000"><ele>0</ele><time>2010-01-01T06:11:56Z</time></trkpt>
<trkpt lat="48.83703000" lon="1.027180000"><ele>0</ele><time>2010-01-01T06:12:05Z</time></trkpt>
<trkpt lat="48.83673000" lon="1.026730000"><ele>0</ele><time>2010-01-01T06:12:22Z</time></trkpt>
<trkpt lat="48.83658000" lon="1.026530000"><ele>0</ele><time>2010-01-01T06:12:30Z</time></trkpt>
<trkpt lat="48.83626000" lon="1.026020000"><ele>0</ele><time>2010-01-01T06:12:48Z</time></trkpt>
<trkpt lat="48.83623000" lon="1.025960000"><ele>0</ele><time>2010-01-01T06:12:50Z</time></trkpt>
<trkpt lat="48.83616000" lon="1.025850000"><ele>0</ele><time>2010-01-01T06:12:54Z</time></trkpt>
<trkpt lat="48.83610000" lon="1.025730000"><ele>0</ele><time>2010-01-01T06:12:58Z</time></trkpt>
<trkpt lat="48.83603000" lon="1.025620000"><ele>0</ele><time>2010-01-01T06:13:02Z</time></trkpt>
<trkpt lat="48.83591000" lon="1.025400000"><ele>0</ele><time>2010-01-01T06:13:10Z</time></trkpt>
<trkpt lat="48.83578000" lon="1.025200000"><ele>0</ele><time>2010-01-01T06:13:17Z</time></trkpt>
<trkpt lat="48.83570000" lon="1.025100000"><ele>0</ele><time>2010-01-01T06:13:22Z</time></trkpt>
<trkpt lat="48.83563000" lon="1.025000000"><ele>0</ele><time>2010-01-01T06:13:25Z</time></trkpt>
<trkpt lat="48.83555000" lon="1.024910000"><ele>0</ele><time>2010-01-01T06:13:29Z</time></trkpt>
<trkpt lat="48.83539000" lon="1.024750000"><ele>0</ele><time>2010-01-01T06:13:37Z</time></trkpt>
<trkpt lat="48.83513000" lon="1.024520000"><ele>0</ele><time>2010-01-01T06:13:49Z</time></trkpt>
<trkpt lat="48.83504000" lon="1.024450000"><ele>0</ele><time>2010-01-01T06:13:53Z</time></trkpt>
<trkpt lat="48.83495000" lon="1.024370000"><ele>0</ele><time>2010-01-01T06:13:57Z</time></trkpt>
<trkpt lat="48.83487000" lon="1.024290000"><ele>0</ele><time>2010-01-01T06:14:01Z</time></trkpt>
<trkpt lat="48.83466000" lon="1.024060000"><ele>0</ele><time>2010-01-01T06:14:12Z</time></trkpt>
<trkpt lat="48.83356000" lon="1.022250000"><ele>0</ele><time>2010-01-01T06:15:16Z</time></trkpt>
<trkpt lat="48.83346000" lon="1.022120000"><ele>0</ele><time>2010-01-01T06:15:22Z</time></trkpt>
<trkpt lat="48.83331000" lon="1.021890000"><ele>0</ele><time>2010-01-01T06:15:30Z</time></trkpt>
<trkpt lat="48.83319000" lon="1.021730000"><ele>0</ele><time>2010-01-01T06:15:37Z</time></trkpt>
<trkpt lat="48.83298000" lon="1.021490000"><ele>0</ele><time>2010-01-01T06:15:47Z</time></trkpt>
<trkpt lat="48.83218000" lon="1.020680000"><ele>0</ele><time>2010-01-01T06:16:26Z</time></trkpt>
<trkpt lat="48.83209000" lon="1.020580000"><ele>0</ele><time>2010-01-01T06:16:30Z</time></trkpt>
<trkpt lat="48.83046000" lon="1.018990000"><ele>0</ele><time>2010-01-01T06:17:48Z</time></trkpt>
<trkpt lat="48.83038000" lon="1.018900000"><ele>0</ele><time>2010-01-01T06:17:52Z</time></trkpt>
<trkpt lat="48.82993000" lon="1.018450000"><ele>0</ele><time>2010-01-01T06:18:13Z</time></trkpt>
<trkpt lat="48.82985000" lon="1.018350000"><ele>0</ele><time>2010-01-01T06:18:17Z</time></trkpt>
<trkpt lat="48.82976000" lon="1.018260000"><ele>0</ele><time>2010-01-01T06:18:22Z</time></trkpt>
<trkpt lat="48.82967000" lon="1.018160000"><ele>0</ele><time>2010-01-01T06:18:26Z</time></trkpt>
<trkpt lat="48.82959000" lon="1.018060000"><ele>0</ele><time>2010-01-01T06:18:30Z</time></trkpt>
<trkpt lat="48.82942000" lon="1.017870000"><ele>0</ele><time>2010-01-01T06:18:39Z</time></trkpt>
<trkpt lat="48.82897000" lon="1.017280000"><ele>0</ele><time>2010-01-01T06:19:03Z</time></trkpt>
<trkpt lat="48.82885000" lon="1.017110000"><ele>0</ele><time>2010-01-01T06:19:09Z</time></trkpt>
<trkpt lat="48.82856000" lon="1.016660000"><ele>0</ele><time>2010-01-01T06:19:26Z</time></trkpt>
<trkpt lat="48.82830000" lon="1.016210000"><ele>0</ele><time>2010-01-01T06:19:41Z</time></trkpt>
<trkpt lat="48.82807000" lon="1.015770000"><ele>0</ele><time>2010-01-01T06:19:56Z</time></trkpt>
<trkpt lat="48.82733000" lon="1.014280000"><ele>0</ele><time>2010-01-01T06:20:45Z</time></trkpt>
<trkpt lat="48.82695000" lon="1.013460000"><ele>0</ele><time>2010-01-01T06:21:12Z</time></trkpt>
<trkpt lat="48.82593000" lon="1.011360000"><ele>0</ele><time>2010-01-01T06:22:21Z</time></trkpt>
<trkpt lat="48.82579000" lon="1.011050000"><ele>0</ele><time>2010-01-01T06:22:31Z</time></trkpt>
<trkpt lat="48.82477000" lon="1.008940000"><ele>0</ele><time>2010-01-01T06:23:40Z</time></trkpt>
<trkpt lat="48.82467000" lon="1.008760000"><ele>0</ele><time>2010-01-01T06:23:46Z</time></trkpt>
<trkpt lat="48.82449000" lon="1.008490000"><ele>0</ele><time>2010-01-01T06:23:56Z</time></trkpt>
<trkpt lat="48.82437000" lon="1.008340000"><ele>0</ele><time>2010-01-01T06:24:02Z</time></trkpt>
<trkpt lat="48.82423000" lon="1.008200000"><ele>0</ele><time>2010-01-01T06:24:09Z</time></trkpt>
<trkpt lat="48.82416000" lon="1.008140000"><ele>0</ele><time>2010-01-01T06:24:12Z</time></trkpt>
<trkpt lat="48.82410000" lon="1.008080000"><ele>0</ele><time>2010-01-01T06:24:15Z</time></trkpt>
<trkpt lat="48.82403000" lon="1.008020000"><ele>0</ele><time>2010-01-01T06:24:18Z</time></trkpt>
<trkpt lat="48.82388000" lon="1.007920000"><ele>0</ele><time>2010-01-01T06:24:25Z</time></trkpt>
<trkpt lat="48.82381000" lon="1.007880000"><ele>0</ele><time>2010-01-01T06:24:28Z</time></trkpt>
<trkpt lat="48.82373000" lon="1.007820000"><ele>0</ele><time>2010-01-01T06:24:31Z</time></trkpt>
<trkpt lat="48.82262000" lon="1.007160000"><ele>0</ele><time>2010-01-01T06:25:19Z</time></trkpt>
<trkpt lat="48.82235000" lon="1.007020000"><ele>0</ele><time>2010-01-01T06:25:30Z</time></trkpt>
<trkpt lat="48.82226000" lon="1.006960000"><ele>0</ele><time>2010-01-01T06:25:34Z</time></trkpt>
<trkpt lat="48.82208000" lon="1.006870000"><ele>0</ele><time>2010-01-01T06:25:42Z</time></trkpt>
<trkpt lat="48.82190000" lon="1.006770000"><ele>0</ele><time>2010-01-01T06:25:50Z</time></trkpt>
<trkpt lat="48.82181000" lon="1.006740000"><ele>0</ele><time>2010-01-01T06:25:53Z</time></trkpt>
<trkpt lat="48.82162000" lon="1.006660000"><ele>0</ele><time>2010-01-01T06:26:01Z</time></trkpt>
<trkpt lat="48.82152000" lon="1.006630000"><ele>0</ele><time>2010-01-01T06:26:05Z</time></trkpt>
<trkpt lat="48.82122000" lon="1.006560000"><ele>0</ele><time>2010-01-01T06:26:17Z</time></trkpt>
<trkpt lat="48.82028000" lon="1.006380000"><ele>0</ele><time>2010-01-01T06:26:55Z</time></trkpt>
<trkpt lat="48.81973000" lon="1.006300000"><ele>0</ele><time>2010-01-01T06:27:17Z</time></trkpt>
<trkpt lat="48.81921000" lon="1.006210000"><ele>0</ele><time>2010-01-01T06:27:38Z</time></trkpt>
<trkpt lat="48.81917000" lon="1.006210000"><ele>0</ele><time>2010-01-01T06:27:40Z</time></trkpt>
<trkpt lat="48.81702000" lon="1.005900000"><ele>0</ele><time>2010-01-01T06:29:06Z</time></trkpt>
<trkpt lat="48.81656000" lon="1.005850000"><ele>0</ele><time>2010-01-01T06:29:25Z</time></trkpt>
<trkpt lat="48.81588000" lon="1.005750000"><ele>0</ele><time>2010-01-01T06:29:52Z</time></trkpt>
<trkpt lat="48.81577000" lon="1.005740000"><ele>0</ele><time>2010-01-01T06:29:57Z</time></trkpt>
<trkpt lat="48.81520000" lon="1.005660000"><ele>0</ele><time>2010-01-01T06:30:20Z</time></trkpt>
<trkpt lat="48.81509000" lon="1.005650000"><ele>0</ele><time>2010-01-01T06:30:24Z</time></trkpt>
<trkpt lat="48.81498000" lon="1.005630000"><ele>0</ele><time>2010-01-01T06:30:28Z</time></trkpt>
<trkpt lat="48.81465000" lon="1.005590000"><ele>0</ele><time>2010-01-01T06:30:42Z</time></trkpt>
<trkpt lat="48.81402000" lon="1.005470000"><ele>0</ele><time>2010-01-01T06:31:07Z</time></trkpt>
<trkpt lat="48.81385000" lon="1.005430000"><ele>0</ele><time>2010-01-01T06:31:14Z</time></trkpt>
<trkpt lat="48.81372000" lon="1.005390000"><ele>0</ele><time>2010-01-01T06:31:19Z</time></trkpt>
<trkpt lat="48.81337000" lon="1.005260000"><ele>0</ele><time>2010-01-01T06:31:34Z</time></trkpt>
<trkpt lat="48.81310000" lon="1.005140000"><ele>0</ele><time>2010-01-01T06:31:45Z</time></trkpt>
<trkpt lat="48.81285000" lon="1.005010000"><ele>0</ele><time>2010-01-01T06:31:56Z</time></trkpt>
<trkpt lat="48.81265000" lon="1.004890000"><ele>0</ele><time>2010-01-01T06:32:04Z</time></trkpt>
<trkpt lat="48.81185000" lon="1.004340000"><ele>0</ele><time>2010-01-01T06:32:39Z</time></trkpt>
<trkpt lat="48.81101000" lon="1.003690000"><ele>0</ele><time>2010-01-01T06:33:17Z</time></trkpt>
<trkpt lat="48.81064000" lon="1.003420000"><ele>0</ele><time>2010-01-01T06:33:33Z</time></trkpt>
<trkpt lat="48.81009000" lon="1.002990000"><ele>0</ele><time>2010-01-01T06:33:58Z</time></trkpt>
<trkpt lat="48.80945000" lon="1.002520000"><ele>0</ele><time>2010-01-01T06:34:27Z</time></trkpt>
<trkpt lat="48.80935000" lon="1.002440000"><ele>0</ele><time>2010-01-01T06:34:31Z</time></trkpt>
<trkpt lat="48.80924000" lon="1.002370000"><ele>0</ele><time>2010-01-01T06:34:36Z</time></trkpt>
<trkpt lat="48.80882000" lon="1.002060000"><ele>0</ele><time>2010-01-01T06:34:55Z</time></trkpt>
<trkpt lat="48.80870000" lon="1.001990000"><ele>0</ele><time>2010-01-01T06:35:00Z</time></trkpt>
<trkpt lat="48.80817000" lon="1.001570000"><ele>0</ele><time>2010-01-01T06:35:24Z</time></trkpt>
<trkpt lat="48.80786000" lon="1.001350000"><ele>0</ele><time>2010-01-01T06:35:37Z</time></trkpt>
<trkpt lat="48.80755000" lon="1.001110000"><ele>0</ele><time>2010-01-01T06:35:51Z</time></trkpt>
<trkpt lat="48.80734000" lon="1.000960000"><ele>0</ele><time>2010-01-01T06:36:01Z</time></trkpt>
<trkpt lat="48.80667000" lon="1.000440000"><ele>0</ele><time>2010-01-01T06:36:31Z</time></trkpt>
<trkpt lat="48.80639000" lon="1.000240000"><ele>0</ele><time>2010-01-01T06:36:43Z</time></trkpt>
<trkpt lat="48.80524000" lon="0.999360000"><ele>0</ele><time>2010-01-01T06:37:35Z</time></trkpt>
<trkpt lat="48.80501000" lon="0.999220000"><ele>0</ele><time>2010-01-01T06:37:45Z</time></trkpt>
<trkpt lat="48.80455000" lon="0.998920000"><ele>0</ele><time>2010-01-01T06:38:05Z</time></trkpt>
<trkpt lat="48.80445000" lon="0.998870000"><ele>0</ele><time>2010-01-01T06:38:09Z</time></trkpt>
<trkpt lat="48.80394000" lon="0.998570000"><ele>0</ele><time>2010-01-01T06:38:31Z</time></trkpt>
<trkpt lat="48.80383000" lon="0.998520000"><ele>0</ele><time>2010-01-01T06:38:35Z</time></trkpt>
<trkpt lat="48.80352000" lon="0.998330000"><ele>0</ele><time>2010-01-01T06:38:49Z</time></trkpt>
<trkpt lat="48.80342000" lon="0.998280000"><ele>0</ele><time>2010-01-01T06:38:53Z</time></trkpt>
<trkpt lat="48.80284000" lon="0.997930000"><ele>0</ele><time>2010-01-01T06:39:18Z</time></trkpt>
<trkpt lat="48.80266000" lon="0.997800000"><ele>0</ele><time>2010-01-01T06:39:26Z</time></trkpt>
<trkpt lat="48.80256000" lon="0.997720000"><ele>0</ele><time>2010-01-01T06:39:30Z</time></trkpt>
<trkpt lat="48.80241000" lon="0.997550000"><ele>0</ele><time>2010-01-01T06:39:38Z</time></trkpt>
<trkpt lat="48.80233000" lon="0.997470000"><ele>0</ele><time>2010-01-01T06:39:42Z</time></trkpt>
<trkpt lat="48.80217000" lon="0.997270000"><ele>0</ele><time>2010-01-01T06:39:50Z</time></trkpt>
<trkpt lat="48.80203000" lon="0.997060000"><ele>0</ele><time>2010-01-01T06:39:58Z</time></trkpt>
<trkpt lat="48.80189000" lon="0.996830000"><ele>0</ele><time>2010-01-01T06:40:06Z</time></trkpt>
<trkpt lat="48.80171000" lon="0.996470000"><ele>0</ele><time>2010-01-01T06:40:18Z</time></trkpt>
<trkpt lat="48.80143000" lon="0.995960000"><ele>0</ele><time>2010-01-01T06:40:36Z</time></trkpt>
<trkpt lat="48.80138000" lon="0.995830000"><ele>0</ele><time>2010-01-01T06:40:40Z</time></trkpt>
<trkpt lat="48.80110000" lon="0.995320000"><ele>0</ele><time>2010-01-01T06:40:57Z</time></trkpt>
<trkpt lat="48.80089000" lon="0.995020000"><ele>0</ele><time>2010-01-01T06:41:09Z</time></trkpt>
<trkpt lat="48.80081000" lon="0.994920000"><ele>0</ele><time>2010-01-01T06:41:13Z</time></trkpt>
<trkpt lat="48.80066000" lon="0.994750000"><ele>0</ele><time>2010-01-01T06:41:20Z</time></trkpt>
<trkpt lat="48.80048000" lon="0.994590000"><ele>0</ele><time>2010-01-01T06:41:29Z</time></trkpt>
<trkpt lat="48.80012000" lon="0.994350000"><ele>0</ele><time>2010-01-01T06:41:44Z</time></trkpt>
<trkpt lat="48.79984000" lon="0.994200000"><ele>0</ele><time>2010-01-01T06:41:56Z</time></trkpt>
<trkpt lat="48.79952000" lon="0.994060000"><ele>0</ele><time>2010-01-01T06:42:10Z</time></trkpt>
<trkpt lat="48.79925000" lon="0.993960000"><ele>0</ele><time>2010-01-01T06:42:21Z</time></trkpt>
<trkpt lat="48.79884000" lon="0.993840000"><ele>0</ele><time>2010-01-01T06:42:37Z</time></trkpt>
<trkpt lat="48.79873000" lon="0.993820000"><ele>0</ele><time>2010-01-01T06:42:42Z</time></trkpt>
<trkpt lat="48.79863000" lon="0.993790000"><ele>0</ele><time>2010-01-01T06:42:46Z</time></trkpt>
<trkpt lat="48.79853000" lon="0.993770000"><ele>0</ele><time>2010-01-01T06:42:50Z</time></trkpt>
<trkpt lat="48.79842000" lon="0.993740000"><ele>0</ele><time>2010-01-01T06:42:54Z</time></trkpt>
<trkpt lat="48.79822000" lon="0.993700000"><ele>0</ele><time>2010-01-01T06:43:03Z</time></trkpt>
<trkpt lat="48.79811000" lon="0.993670000"><ele>0</ele><time>2010-01-01T06:43:07Z</time></trkpt>
<trkpt lat="48.79780000" lon="0.993610000"><ele>0</ele><time>2010-01-01T06:43:20Z</time></trkpt>
<trkpt lat="48.79770000" lon="0.993580000"><ele>0</ele><time>2010-01-01T06:43:24Z</time></trkpt>
<trkpt lat="48.79760000" lon="0.993570000"><ele>0</ele><time>2010-01-01T06:43:28Z</time></trkpt>
<trkpt lat="48.79719000" lon="0.993480000"><ele>0</ele><time>2010-01-01T06:43:44Z</time></trkpt>
<trkpt lat="48.79710000" lon="0.993450000"><ele>0</ele><time>2010-01-01T06:43:48Z</time></trkpt>
<trkpt lat="48.79691000" lon="0.993410000"><ele>0</ele><time>2010-01-01T06:43:56Z</time></trkpt>
<trkpt lat="48.79662000" lon="0.993320000"><ele>0</ele><time>2010-01-01T06:44:07Z</time></trkpt>
<trkpt lat="48.79618000" lon="0.993120000"><ele>0</ele><time>2010-01-01T06:44:26Z</time></trkpt>
<trkpt lat="48.79601000" lon="0.993030000"><ele>0</ele><time>2010-01-01T06:44:33Z</time></trkpt>
<trkpt lat="48.79594000" lon="0.993000000"><ele>0</ele><time>2010-01-01T06:44:36Z</time></trkpt>
<trkpt lat="48.79575000" lon="0.992890000"><ele>0</ele><time>2010-01-01T06:44:44Z</time></trkpt>
<trkpt lat="48.79523000" lon="0.992530000"><ele>0</ele><time>2010-01-01T06:45:07Z</time></trkpt>
<trkpt lat="48.79523000" lon="0.992520000"><ele>0</ele><time>2010-01-01T06:45:07Z</time></trkpt>
<trkpt lat="48.79492000" lon="0.992280000"><ele>0</ele><time>2010-01-01T06:45:21Z</time></trkpt>
<trkpt lat="48.79295000" lon="0.990650000"><ele>0</ele><time>2010-01-01T06:46:51Z</time></trkpt>
<trkpt lat="48.79254000" lon="0.990250000"><ele>0</ele><time>2010-01-01T06:47:10Z</time></trkpt>
<trkpt lat="48.79232000" lon="0.990010000"><ele>0</ele><time>2010-01-01T06:47:21Z</time></trkpt>
<trkpt lat="48.78999000" lon="0.987590000"><ele>0</ele><time>2010-01-01T06:49:14Z</time></trkpt>
<trkpt lat="48.78945000" lon="0.987140000"><ele>0</ele><time>2010-01-01T06:49:39Z</time></trkpt>
<trkpt lat="48.78927000" lon="0.987030000"><ele>0</ele><time>2010-01-01T06:49:47Z</time></trkpt>
<trkpt lat="48.78911000" lon="0.986910000"><ele>0</ele><time>2010-01-01T06:49:54Z</time></trkpt>
<trkpt lat="48.78879000" lon="0.986710000"><ele>0</ele><time>2010-01-01T06:50:08Z</time></trkpt>
<trkpt lat="48.78821000" lon="0.986280000"><ele>0</ele><time>2010-01-01T06:50:34Z</time></trkpt>
<trkpt lat="48.78811000" lon="0.986190000"><ele>0</ele><time>2010-01-01T06:50:38Z</time></trkpt>
<trkpt lat="48.78801000" lon="0.986090000"><ele>0</ele><time>2010-01-01T06:50:43Z</time></trkpt>
<trkpt lat="48.78791000" lon="0.985980000"><ele>0</ele><time>2010-01-01T06:50:48Z</time></trkpt>
<trkpt lat="48.78785000" lon="0.985890000"><ele>0</ele><time>2010-01-01T06:50:51Z</time></trkpt>
<trkpt lat="48.78766000" lon="0.985660000"><ele>0</ele><time>2010-01-01T06:51:01Z</time></trkpt>
<trkpt lat="48.78752000" lon="0.985430000"><ele>0</ele><time>2010-01-01T06:51:09Z</time></trkpt>
<trkpt lat="48.78741000" lon="0.985230000"><ele>0</ele><time>2010-01-01T06:51:16Z</time></trkpt>
<trkpt lat="48.78593000" lon="0.982730000"><ele>0</ele><time>2010-01-01T06:52:45Z</time></trkpt>
<trkpt lat="48.78578000" lon="0.982450000"><ele>0</ele><time>2010-01-01T06:52:54Z</time></trkpt>
<trkpt lat="48.78573000" lon="0.982380000"><ele>0</ele><time>2010-01-01T06:52:57Z</time></trkpt>
<trkpt lat="48.78548000" lon="0.981950000"><ele>0</ele><time>2010-01-01T06:53:12Z</time></trkpt>
<trkpt lat="48.78545000" lon="0.981920000"><ele>0</ele><time>2010-01-01T06:53:14Z</time></trkpt>
<trkpt lat="48.78522000" lon="0.981520000"><ele>0</ele><time>2010-01-01T06:53:28Z</time></trkpt>
<trkpt lat="48.78510000" lon="0.981360000"><ele>0</ele><time>2010-01-01T06:53:34Z</time></trkpt>
<trkpt lat="48.78490000" lon="0.981060000"><ele>0</ele><time>2010-01-01T06:53:45Z</time></trkpt>
<trkpt lat="48.78405000" lon="0.980060000"><ele>0</ele><time>2010-01-01T06:54:28Z</time></trkpt>
<trkpt lat="48.78177000" lon="0.977510000"><ele>0</ele><time>2010-01-01T06:56:22Z</time></trkpt>
<trkpt lat="48.78157000" lon="0.977270000"><ele>0</ele><time>2010-01-01T06:56:32Z</time></trkpt>
<trkpt lat="48.78140000" lon="0.977090000"><ele>0</ele><time>2010-01-01T06:56:40Z</time></trkpt>
<trkpt lat="48.78119000" lon="0.976850000"><ele>0</ele><time>2010-01-01T06:56:51Z</time></trkpt>
<trkpt lat="48.78074000" lon="0.976280000"><ele>0</ele><time>2010-01-01T06:57:14Z</time></trkpt>
<trkpt lat="48.78050000" lon="0.975930000"><ele>0</ele><time>2010-01-01T06:57:28Z</time></trkpt>
<trkpt lat="48.77956000" lon="0.974390000"><ele>0</ele><time>2010-01-01T06:58:23Z</time></trkpt>
<trkpt lat="48.77927000" lon="0.973970000"><ele>0</ele><time>2010-01-01T06:58:39Z</time></trkpt>
<trkpt lat="48.77900000" lon="0.973630000"><ele>0</ele><time>2010-01-01T06:58:53Z</time></trkpt>
<trkpt lat="48.77861000" lon="0.973200000"><ele>0</ele><time>2010-01-01T06:59:12Z</time></trkpt>
<trkpt lat="48.77436000" lon="0.968830000"><ele>0</ele><time>2010-01-01T07:02:38Z</time></trkpt>
<trkpt lat="48.77415000" lon="0.968600000"><ele>0</ele><time>2010-01-01T07:02:48Z</time></trkpt>
<trkpt lat="48.77367000" lon="0.967990000"><ele>0</ele><time>2010-01-01T07:03:13Z</time></trkpt>
<trkpt lat="48.77350000" lon="0.967740000"><ele>0</ele><time>2010-01-01T07:03:23Z</time></trkpt>
<trkpt lat="48.77340000" lon="0.967580000"><ele>0</ele><time>2010-01-01T07:03:29Z</time></trkpt>
<trkpt lat="48.77329000" lon="0.967420000"><ele>0</ele><time>2010-01-01T07:03:35Z</time></trkpt>
<trkpt lat="48.77195000" lon="0.965200000"><ele>0</ele><time>2010-01-01T07:04:54Z</time></trkpt>
<trkpt lat="48.77172000" lon="0.964850000"><ele>0</ele><time>2010-01-01T07:05:07Z</time></trkpt>
<trkpt lat="48.77143000" lon="0.964330000"><ele>0</ele><time>2010-01-01T07:05:25Z</time></trkpt>
<trkpt lat="48.77105000" lon="0.963610000"><ele>0</ele><time>2010-01-01T07:05:49Z</time></trkpt>
<trkpt lat="48.77065000" lon="0.962760000"><ele>0</ele><time>2010-01-01T07:06:17Z</time></trkpt>
<trkpt lat="48.77061000" lon="0.962690000"><ele>0</ele><time>2010-01-01T07:06:19Z</time></trkpt>
<trkpt lat="48.77050000" lon="0.962460000"><ele>0</ele><time>2010-01-01T07:06:27Z</time></trkpt>
<trkpt lat="48.77031000" lon="0.962130000"><ele>0</ele><time>2010-01-01T07:06:38Z</time></trkpt>
<trkpt lat="48.77017000" lon="0.961920000"><ele>0</ele><time>2010-01-01T07:06:46Z</time></trkpt>
<trkpt lat="48.76999000" lon="0.961690000"><ele>0</ele><time>2010-01-01T07:06:56Z</time></trkpt>
<trkpt lat="48.76985000" lon="0.961530000"><ele>0</ele><time>2010-01-01T07:07:03Z</time></trkpt>
<trkpt lat="48.76937000" lon="0.961080000"><ele>0</ele><time>2010-01-01T07:07:25Z</time></trkpt>
<trkpt lat="48.76897000" lon="0.960730000"><ele>0</ele><time>2010-01-01T07:07:44Z</time></trkpt>
<trkpt lat="48.76813000" lon="0.959910000"><ele>0</ele><time>2010-01-01T07:08:24Z</time></trkpt>
<trkpt lat="48.76806000" lon="0.959820000"><ele>0</ele><time>2010-01-01T07:08:28Z</time></trkpt>
<trkpt lat="48.76803000" lon="0.959800000"><ele>0</ele><time>2010-01-01T07:08:29Z</time></trkpt>
<trkpt lat="48.76796000" lon="0.959720000"><ele>0</ele><time>2010-01-01T07:08:32Z</time></trkpt>
<trkpt lat="48.76787000" lon="0.959630000"><ele>0</ele><time>2010-01-01T07:08:37Z</time></trkpt>
<trkpt lat="48.76745000" lon="0.959140000"><ele>0</ele><time>2010-01-01T07:08:58Z</time></trkpt>
<trkpt lat="48.76735000" lon="0.958990000"><ele>0</ele><time>2010-01-01T07:09:04Z</time></trkpt>
<trkpt lat="48.76722000" lon="0.958840000"><ele>0</ele><time>2010-01-01T07:09:10Z</time></trkpt>
<trkpt lat="48.76700000" lon="0.958540000"><ele>0</ele><time>2010-01-01T07:09:22Z</time></trkpt>
<trkpt lat="48.76671000" lon="0.958120000"><ele>0</ele><time>2010-01-01T07:09:38Z</time></trkpt>
<trkpt lat="48.76648000" lon="0.957850000"><ele>0</ele><time>2010-01-01T07:09:50Z</time></trkpt>
<trkpt lat="48.76637000" lon="0.957750000"><ele>0</ele><time>2010-01-01T07:09:55Z</time></trkpt>
<trkpt lat="48.76627000" lon="0.957650000"><ele>0</ele><time>2010-01-01T07:10:00Z</time></trkpt>
<trkpt lat="48.76503000" lon="0.956600000"><ele>0</ele><time>2010-01-01T07:10:56Z</time></trkpt>
<trkpt lat="48.76395000" lon="0.955740000"><ele>0</ele><time>2010-01-01T07:11:45Z</time></trkpt>
<trkpt lat="48.76387000" lon="0.955660000"><ele>0</ele><time>2010-01-01T07:11:49Z</time></trkpt>
<trkpt lat="48.76376000" lon="0.955580000"><ele>0</ele><time>2010-01-01T07:11:54Z</time></trkpt>
<trkpt lat="48.76339000" lon="0.955280000"><ele>0</ele><time>2010-01-01T07:12:11Z</time></trkpt>
<trkpt lat="48.76318000" lon="0.955090000"><ele>0</ele><time>2010-01-01T07:12:20Z</time></trkpt>
<trkpt lat="48.76300000" lon="0.954910000"><ele>0</ele><time>2010-01-01T07:12:29Z</time></trkpt>
<trkpt lat="48.76293000" lon="0.954820000"><ele>0</ele><time>2010-01-01T07:12:33Z</time></trkpt>
<trkpt lat="48.76284000" lon="0.954720000"><ele>0</ele><time>2010-01-01T07:12:37Z</time></trkpt>
<trkpt lat="48.76277000" lon="0.954630000"><ele>0</ele><time>2010-01-01T07:12:41Z</time></trkpt>
<trkpt lat="48.76269000" lon="0.954540000"><ele>0</ele><time>2010-01-01T07:12:45Z</time></trkpt>
<trkpt lat="48.76266000" lon="0.954480000"><ele>0</ele><time>2010-01-01T07:12:47Z</time></trkpt>
<trkpt lat="48.76151000" lon="0.952700000"><ele>0</ele><time>2010-01-01T07:13:53Z</time></trkpt>
<trkpt lat="48.76111000" lon="0.952190000"><ele>0</ele><time>2010-01-01T07:14:14Z</time></trkpt>
<trkpt lat="48.76092000" lon="0.951970000"><ele>0</ele><time>2010-01-01T07:14:23Z</time></trkpt>
<trkpt lat="48.76000000" lon="0.950840000"><ele>0</ele><time>2010-01-01T07:15:11Z</time></trkpt>
<trkpt lat="48.75968000" lon="0.950470000"><ele>0</ele><time>2010-01-01T07:15:27Z</time></trkpt>
<trkpt lat="48.75928000" lon="0.949970000"><ele>0</ele><time>2010-01-01T07:15:47Z</time></trkpt>
<trkpt lat="48.75901000" lon="0.949570000"><ele>0</ele><time>2010-01-01T07:16:02Z</time></trkpt>
<trkpt lat="48.75885000" lon="0.949310000"><ele>0</ele><time>2010-01-01T07:16:12Z</time></trkpt>
<trkpt lat="48.75882000" lon="0.949250000"><ele>0</ele><time>2010-01-01T07:16:14Z</time></trkpt>
<trkpt lat="48.75870000" lon="0.949050000"><ele>0</ele><time>2010-01-01T07:16:21Z</time></trkpt>
<trkpt lat="48.75845000" lon="0.948540000"><ele>0</ele><time>2010-01-01T07:16:38Z</time></trkpt>
<trkpt lat="48.75843000" lon="0.948490000"><ele>0</ele><time>2010-01-01T07:16:39Z</time></trkpt>
<trkpt lat="48.75836000" lon="0.948350000"><ele>0</ele><time>2010-01-01T07:16:44Z</time></trkpt>
<trkpt lat="48.75816000" lon="0.947910000"><ele>0</ele><time>2010-01-01T07:16:58Z</time></trkpt>
<trkpt lat="48.75783000" lon="0.947120000"><ele>0</ele><time>2010-01-01T07:17:23Z</time></trkpt>
<trkpt lat="48.75760000" lon="0.946610000"><ele>0</ele><time>2010-01-01T07:17:39Z</time></trkpt>
<trkpt lat="48.75742000" lon="0.946280000"><ele>0</ele><time>2010-01-01T07:17:50Z</time></trkpt>
<trkpt lat="48.75730000" lon="0.946040000"><ele>0</ele><time>2010-01-01T07:17:58Z</time></trkpt>
<trkpt lat="48.75720000" lon="0.945870000"><ele>0</ele><time>2010-01-01T07:18:04Z</time></trkpt>
<trkpt lat="48.75716000" lon="0.945820000"><ele>0</ele><time>2010-01-01T07:18:06Z</time></trkpt>
<trkpt lat="48.75714000" lon="0.945780000"><ele>0</ele><time>2010-01-01T07:18:08Z</time></trkpt>
<trkpt lat="48.75706000" lon="0.945670000"><ele>0</ele><time>2010-01-01T07:18:12Z</time></trkpt>
<trkpt lat="48.75699000" lon="0.945590000"><ele>0</ele><time>2010-01-01T07:18:16Z</time></trkpt>
<trkpt lat="48.75681000" lon="0.945360000"><ele>0</ele><time>2010-01-01T07:18:25Z</time></trkpt>
<trkpt lat="48.75646000" lon="0.945000000"><ele>0</ele><time>2010-01-01T07:18:42Z</time></trkpt>
<trkpt lat="48.75553000" lon="0.944100000"><ele>0</ele><time>2010-01-01T07:19:26Z</time></trkpt>
<trkpt lat="48.75546000" lon="0.944020000"><ele>0</ele><time>2010-01-01T07:19:30Z</time></trkpt>
<trkpt lat="48.75400000" lon="0.942600000"><ele>0</ele><time>2010-01-01T07:20:39Z</time></trkpt>
<trkpt lat="48.75391000" lon="0.942520000"><ele>0</ele><time>2010-01-01T07:20:43Z</time></trkpt>
<trkpt lat="48.75324000" lon="0.941860000"><ele>0</ele><time>2010-01-01T07:21:15Z</time></trkpt>
<trkpt lat="48.75230000" lon="0.940970000"><ele>0</ele><time>2010-01-01T07:22:00Z</time></trkpt>
<trkpt lat="48.75186000" lon="0.940570000"><ele>0</ele><time>2010-01-01T07:22:20Z</time></trkpt>
<trkpt lat="48.75087000" lon="0.939600000"><ele>0</ele><time>2010-01-01T07:23:07Z</time></trkpt>
<trkpt lat="48.75067000" lon="0.939380000"><ele>0</ele><time>2010-01-01T07:23:17Z</time></trkpt>
<trkpt lat="48.75054000" lon="0.939200000"><ele>0</ele><time>2010-01-01T07:23:24Z</time></trkpt>
<trkpt lat="48.75027000" lon="0.938870000"><ele>0</ele><time>2010-01-01T07:23:38Z</time></trkpt>
<trkpt lat="48.74814000" lon="0.935560000"><ele>0</ele><time>2010-01-01T07:25:40Z</time></trkpt>
<trkpt lat="48.74784000" lon="0.935120000"><ele>0</ele><time>2010-01-01T07:25:57Z</time></trkpt>
<trkpt lat="48.74730000" lon="0.934290000"><ele>0</ele><time>2010-01-01T07:26:28Z</time></trkpt>
<trkpt lat="48.74709000" lon="0.933990000"><ele>0</ele><time>2010-01-01T07:26:39Z</time></trkpt>
<trkpt lat="48.74589000" lon="0.932180000"><ele>0</ele><time>2010-01-01T07:27:47Z</time></trkpt>
<trkpt lat="48.74557000" lon="0.931670000"><ele>0</ele><time>2010-01-01T07:28:05Z</time></trkpt>
<trkpt lat="48.74484000" lon="0.930560000"><ele>0</ele><time>2010-01-01T07:28:47Z</time></trkpt>
<trkpt lat="48.74450000" lon="0.929970000"><ele>0</ele><time>2010-01-01T07:29:08Z</time></trkpt>
<trkpt lat="48.74427000" lon="0.929520000"><ele>0</ele><time>2010-01-01T07:29:23Z</time></trkpt>
<trkpt lat="48.74421000" lon="0.929350000"><ele>0</ele><time>2010-01-01T07:29:28Z</time></trkpt>
<trkpt lat="48.74422000" lon="0.929310000"><ele>0</ele><time>2010-01-01T07:29:29Z</time></trkpt>
<trkpt lat="48.74421000" lon="0.929220000"><ele>0</ele><time>2010-01-01T07:29:31Z</time></trkpt>
<trkpt lat="48.74421000" lon="0.929160000"><ele>0</ele><time>2010-01-01T07:29:33Z</time></trkpt>
<trkpt lat="48.74423000" lon="0.929030000"><ele>0</ele><time>2010-01-01T07:29:36Z</time></trkpt>
<trkpt lat="48.74427000" lon="0.928940000"><ele>0</ele><time>2010-01-01T07:29:39Z</time></trkpt>
<trkpt lat="48.74418000" lon="0.928910000"><ele>0</ele><time>2010-01-01T07:29:43Z</time></trkpt>
<trkpt lat="48.74411000" lon="0.928870000"><ele>0</ele><time>2010-01-01T07:29:46Z</time></trkpt>
<trkpt lat="48.74402000" lon="0.928800000"><ele>0</ele><time>2010-01-01T07:29:50Z</time></trkpt>
<trkpt lat="48.74397000" lon="0.928750000"><ele>0</ele><time>2010-01-01T07:29:52Z</time></trkpt>
<trkpt lat="48.74392000" lon="0.928690000"><ele>0</ele><time>2010-01-01T07:29:55Z</time></trkpt>
<trkpt lat="48.74390000" lon="0.928680000"><ele>0</ele><time>2010-01-01T07:29:56Z</time></trkpt>
<trkpt lat="48.74376000" lon="0.928420000"><ele>0</ele><time>2010-01-01T07:30:05Z</time></trkpt>
<trkpt lat="48.74328000" lon="0.927420000"><ele>0</ele><time>2010-01-01T07:30:37Z</time></trkpt>
<trkpt lat="48.74320000" lon="0.927230000"><ele>0</ele><time>2010-01-01T07:30:43Z</time></trkpt>
<trkpt lat="48.74288000" lon="0.926540000"><ele>0</ele><time>2010-01-01T07:31:05Z</time></trkpt>
<trkpt lat="48.74271000" lon="0.926210000"><ele>0</ele><time>2010-01-01T07:31:16Z</time></trkpt>
<trkpt lat="48.74239000" lon="0.925520000"><ele>0</ele><time>2010-01-01T07:31:39Z</time></trkpt>
<trkpt lat="48.74230000" lon="0.925260000"><ele>0</ele><time>2010-01-01T07:31:47Z</time></trkpt>
<trkpt lat="48.74230000" lon="0.925220000"><ele>0</ele><time>2010-01-01T07:31:48Z</time></trkpt>
<trkpt lat="48.74229000" lon="0.925210000"><ele>0</ele><time>2010-01-01T07:31:48Z</time></trkpt>
<trkpt lat="48.74229000" lon="0.925180000"><ele>0</ele><time>2010-01-01T07:31:49Z</time></trkpt>
<trkpt lat="48.74212000" lon="0.924900000"><ele>0</ele><time>2010-01-01T07:31:59Z</time></trkpt>
<trkpt lat="48.74209000" lon="0.924870000"><ele>0</ele><time>2010-01-01T07:32:00Z</time></trkpt>
<trkpt lat="48.74206000" lon="0.924850000"><ele>0</ele><time>2010-01-01T07:32:02Z</time></trkpt>
<trkpt lat="48.74204000" lon="0.924860000"><ele>0</ele><time>2010-01-01T07:32:02Z</time></trkpt>
<trkpt lat="48.74201000" lon="0.924890000"><ele>0</ele><time>2010-01-01T07:32:04Z</time></trkpt>
<trkpt lat="48.74201000" lon="0.924900000"><ele>0</ele><time>2010-01-01T07:32:04Z</time></trkpt>
<trkpt lat="48.74200000" lon="0.924920000"><ele>0</ele><time>2010-01-01T07:32:05Z</time></trkpt>
<trkpt lat="48.74200000" lon="0.925050000"><ele>0</ele><time>2010-01-01T07:32:08Z</time></trkpt>
<trkpt lat="48.74203000" lon="0.925100000"><ele>0</ele><time>2010-01-01T07:32:10Z</time></trkpt>
<trkpt lat="48.74205000" lon="0.925160000"><ele>0</ele><time>2010-01-01T07:32:12Z</time></trkpt>
<trkpt lat="48.74211000" lon="0.925260000"><ele>0</ele><time>2010-01-01T07:32:15Z</time></trkpt>
<trkpt lat="48.74214000" lon="0.925290000"><ele>0</ele><time>2010-01-01T07:32:17Z</time></trkpt>
<trkpt lat="48.74216000" lon="0.925330000"><ele>0</ele><time>2010-01-01T07:32:18Z</time></trkpt>
<trkpt lat="48.74220000" lon="0.925360000"><ele>0</ele><time>2010-01-01T07:32:20Z</time></trkpt>
<trkpt lat="48.74226000" lon="0.925430000"><ele>0</ele><time>2010-01-01T07:32:23Z</time></trkpt>
<trkpt lat="48.74239000" lon="0.925520000"><ele>0</ele><time>2010-01-01T07:32:29Z</time></trkpt>
<trkpt lat="48.74271000" lon="0.926210000"><ele>0</ele><time>2010-01-01T07:32:51Z</time></trkpt>
<trkpt lat="48.74268000" lon="0.926820000"><ele>0</ele><time>2010-01-01T07:33:07Z</time></trkpt>
<trkpt lat="48.74264000" lon="0.927050000"><ele>0</ele><time>2010-01-01T07:33:13Z</time></trkpt>
<trkpt lat="48.74260000" lon="0.927500000"><ele>0</ele><time>2010-01-01T07:33:25Z</time></trkpt>
<trkpt lat="48.74257000" lon="0.928090000"><ele>0</ele><time>2010-01-01T07:33:41Z</time></trkpt>
<trkpt lat="48.74254000" lon="0.928420000"><ele>0</ele><time>2010-01-01T07:33:50Z</time></trkpt>
<trkpt lat="48.74251000" lon="0.928560000"><ele>0</ele><time>2010-01-01T07:33:54Z</time></trkpt>
<trkpt lat="48.74249000" lon="0.928700000"><ele>0</ele><time>2010-01-01T07:33:57Z</time></trkpt>
<trkpt lat="48.74246000" lon="0.928820000"><ele>0</ele><time>2010-01-01T07:34:01Z</time></trkpt>
<trkpt lat="48.74233000" lon="0.929070000"><ele>0</ele><time>2010-01-01T07:34:09Z</time></trkpt>
<trkpt lat="48.74230000" lon="0.929110000"><ele>0</ele><time>2010-01-01T07:34:11Z</time></trkpt>
<trkpt lat="48.74228000" lon="0.929130000"><ele>0</ele><time>2010-01-01T07:34:12Z</time></trkpt>
<trkpt lat="48.74221000" lon="0.929160000"><ele>0</ele><time>2010-01-01T07:34:15Z</time></trkpt>
<trkpt lat="48.74163000" lon="0.929250000"><ele>0</ele><time>2010-01-01T07:34:38Z</time></trkpt>
<trkpt lat="48.74161000" lon="0.929250000"><ele>0</ele><time>2010-01-01T07:34:39Z</time></trkpt>
<trkpt lat="48.74093000" lon="0.929350000"><ele>0</ele><time>2010-01-01T07:35:06Z</time></trkpt>
<trkpt lat="48.74091000" lon="0.929350000"><ele>0</ele><time>2010-01-01T07:35:07Z</time></trkpt>
<trkpt lat="48.74042000" lon="0.929430000"><ele>0</ele><time>2010-01-01T07:35:27Z</time></trkpt>
<trkpt lat="48.74042000" lon="0.929370000"><ele>0</ele><time>2010-01-01T07:35:28Z</time></trkpt>
<trkpt lat="48.74041000" lon="0.929360000"><ele>0</ele><time>2010-01-01T07:35:29Z</time></trkpt>
<trkpt lat="48.74041000" lon="0.929350000"><ele>0</ele><time>2010-01-01T07:35:29Z</time></trkpt>
<trkpt lat="48.74040000" lon="0.929340000"><ele>0</ele><time>2010-01-01T07:35:30Z</time></trkpt>
<trkpt lat="48.74040000" lon="0.929330000"><ele>0</ele><time>2010-01-01T07:35:30Z</time></trkpt>
<trkpt lat="48.74039000" lon="0.929320000"><ele>0</ele><time>2010-01-01T07:35:30Z</time></trkpt>
<trkpt lat="48.74038000" lon="0.929320000"><ele>0</ele><time>2010-01-01T07:35:31Z</time></trkpt>
<trkpt lat="48.74038000" lon="0.929310000"><ele>0</ele><time>2010-01-01T07:35:31Z</time></trkpt>
<trkpt lat="48.74037000" lon="0.929310000"><ele>0</ele><time>2010-01-01T07:35:31Z</time></trkpt>
<trkpt lat="48.74037000" lon="0.929300000"><ele>0</ele><time>2010-01-01T07:35:32Z</time></trkpt>
<trkpt lat="48.74034000" lon="0.929300000"><ele>0</ele><time>2010-01-01T07:35:33Z</time></trkpt>
<trkpt lat="48.74034000" lon="0.929290000"><ele>0</ele><time>2010-01-01T07:35:33Z</time></trkpt>
<trkpt lat="48.74033000" lon="0.929300000"><ele>0</ele><time>2010-01-01T07:35:34Z</time></trkpt>
<trkpt lat="48.74030000" lon="0.929300000"><ele>0</ele><time>2010-01-01T07:35:35Z</time></trkpt>
<trkpt lat="48.74030000" lon="0.929310000"><ele>0</ele><time>2010-01-01T07:35:35Z</time></trkpt>
<trkpt lat="48.74029000" lon="0.929310000"><ele>0</ele><time>2010-01-01T07:35:35Z</time></trkpt>
<trkpt lat="48.74029000" lon="0.929320000"><ele>0</ele><time>2010-01-01T07:35:36Z</time></trkpt>
<trkpt lat="48.74028000" lon="0.929320000"><ele>0</ele><time>2010-01-01T07:35:36Z</time></trkpt>
<trkpt lat="48.74028000" lon="0.929330000"><ele>0</ele><time>2010-01-01T07:35:36Z</time></trkpt>
<trkpt lat="48.74027000" lon="0.929340000"><ele>0</ele><time>2010-01-01T07:35:37Z</time></trkpt>
<trkpt lat="48.74027000" lon="0.929350000"><ele>0</ele><time>2010-01-01T07:35:37Z</time></trkpt>
<trkpt lat="48.74026000" lon="0.929360000"><ele>0</ele><time>2010-01-01T07:35:38Z</time></trkpt>
<trkpt lat="48.74026000" lon="0.929370000"><ele>0</ele><time>2010-01-01T07:35:38Z</time></trkpt>
<trkpt lat="48.74025000" lon="0.929380000"><ele>0</ele><time>2010-01-01T07:35:38Z</time></trkpt>
<trkpt lat="48.74025000" lon="0.929460000"><ele>0</ele><time>2010-01-01T07:35:40Z</time></trkpt>
<trkpt lat="48.74026000" lon="0.929480000"><ele>0</ele><time>2010-01-01T07:35:41Z</time></trkpt>
<trkpt lat="48.74021000" lon="0.929520000"><ele>0</ele><time>2010-01-01T07:35:43Z</time></trkpt>
<trkpt lat="48.74017000" lon="0.929570000"><ele>0</ele><time>2010-01-01T07:35:45Z</time></trkpt>
<trkpt lat="48.74012000" lon="0.929660000"><ele>0</ele><time>2010-01-01T07:35:49Z</time></trkpt>
<trkpt lat="48.73911000" lon="0.931250000"><ele>0</ele><time>2010-01-01T07:36:47Z</time></trkpt>
<trkpt lat="48.73861000" lon="0.932070000"><ele>0</ele><time>2010-01-01T07:37:16Z</time></trkpt>
<trkpt lat="48.73855000" lon="0.932150000"><ele>0</ele><time>2010-01-01T07:37:20Z</time></trkpt>
<trkpt lat="48.73850000" lon="0.932190000"><ele>0</ele><time>2010-01-01T07:37:22Z</time></trkpt>
<trkpt lat="48.73845000" lon="0.932200000"><ele>0</ele><time>2010-01-01T07:37:24Z</time></trkpt>
<trkpt lat="48.73840000" lon="0.932220000"><ele>0</ele><time>2010-01-01T07:37:26Z</time></trkpt>
<trkpt lat="48.73836000" lon="0.932220000"><ele>0</ele><time>2010-01-01T07:37:27Z</time></trkpt>
<trkpt lat="48.73828000" lon="0.932230000"><ele>0</ele><time>2010-01-01T07:37:31Z</time></trkpt>
<trkpt lat="48.73821000" lon="0.932230000"><ele>0</ele><time>2010-01-01T07:37:33Z</time></trkpt>
<trkpt lat="48.73817000" lon="0.932220000"><ele>0</ele><time>2010-01-01T07:37:35Z</time></trkpt>
<trkpt lat="48.73794000" lon="0.932200000"><ele>0</ele><time>2010-01-01T07:37:44Z</time></trkpt>
<trkpt lat="48.73775000" lon="0.932200000"><ele>0</ele><time>2010-01-01T07:37:52Z</time></trkpt>
<trkpt lat="48.73731000" lon="0.932150000"><ele>0</ele><time>2010-01-01T07:38:10Z</time></trkpt>
<trkpt lat="48.73722000" lon="0.932110000"><ele>0</ele><time>2010-01-01T07:38:13Z</time></trkpt>
<trkpt lat="48.73718000" lon="0.932070000"><ele>0</ele><time>2010-01-01T07:38:15Z</time></trkpt>
<trkpt lat="48.73712000" lon="0.932020000"><ele>0</ele><time>2010-01-01T07:38:18Z</time></trkpt>
<trkpt lat="48.73707000" lon="0.931960000"><ele>0</ele><time>2010-01-01T07:38:21Z</time></trkpt>
<trkpt lat="48.73701000" lon="0.931900000"><ele>0</ele><time>2010-01-01T07:38:23Z</time></trkpt>
<trkpt lat="48.73691000" lon="0.931760000"><ele>0</ele><time>2010-01-01T07:38:29Z</time></trkpt>
<trkpt lat="48.73679000" lon="0.931620000"><ele>0</ele><time>2010-01-01T07:38:35Z</time></trkpt>
<trkpt lat="48.73674000" lon="0.931570000"><ele>0</ele><time>2010-01-01T07:38:37Z</time></trkpt>
<trkpt lat="48.73653000" lon="0.931420000"><ele>0</ele><time>2010-01-01T07:38:47Z</time></trkpt>
<trkpt lat="48.73643000" lon="0.931360000"><ele>0</ele><time>2010-01-01T07:38:51Z</time></trkpt>
<trkpt lat="48.73621000" lon="0.931200000"><ele>0</ele><time>2010-01-01T07:39:01Z</time></trkpt>
<trkpt lat="48.73614000" lon="0.931160000"><ele>0</ele><time>2010-01-01T07:39:04Z</time></trkpt>
<trkpt lat="48.73603000" lon="0.931080000"><ele>0</ele><time>2010-01-01T07:39:09Z</time></trkpt>
<trkpt lat="48.73598000" lon="0.931020000"><ele>0</ele><time>2010-01-01T07:39:11Z</time></trkpt>
<trkpt lat="48.73593000" lon="0.930970000"><ele>0</ele><time>2010-01-01T07:39:14Z</time></trkpt>
<trkpt lat="48.73589000" lon="0.930920000"><ele>0</ele><time>2010-01-01T07:39:16Z</time></trkpt>
<trkpt lat="48.73587000" lon="0.930890000"><ele>0</ele><time>2010-01-01T07:39:17Z</time></trkpt>
<trkpt lat="48.73586000" lon="0.930860000"><ele>0</ele><time>2010-01-01T07:39:18Z</time></trkpt>
<trkpt lat="48.73584000" lon="0.930830000"><ele>0</ele><time>2010-01-01T07:39:19Z</time></trkpt>
<trkpt lat="48.73581000" lon="0.930760000"><ele>0</ele><time>2010-01-01T07:39:21Z</time></trkpt>
<trkpt lat="48.73577000" lon="0.930600000"><ele>0</ele><time>2010-01-01T07:39:25Z</time></trkpt>
<trkpt lat="48.73577000" lon="0.930580000"><ele>0</ele><time>2010-01-01T07:39:26Z</time></trkpt>
<trkpt lat="48.73576000" lon="0.930530000"><ele>0</ele><time>2010-01-01T07:39:27Z</time></trkpt>
<trkpt lat="48.73576000" lon="0.930440000"><ele>0</ele><time>2010-01-01T07:39:30Z</time></trkpt>
<trkpt lat="48.73575000" lon="0.930340000"><ele>0</ele><time>2010-01-01T07:39:32Z</time></trkpt>
<trkpt lat="48.73589000" lon="0.929580000"><ele>0</ele><time>2010-01-01T07:39:53Z</time></trkpt>
<trkpt lat="48.73593000" lon="0.929300000"><ele>0</ele><time>2010-01-01T07:40:01Z</time></trkpt>
<trkpt lat="48.73598000" lon="0.929040000"><ele>0</ele><time>2010-01-01T07:40:08Z</time></trkpt>
<trkpt lat="48.73598000" lon="0.929030000"><ele>0</ele><time>2010-01-01T07:40:08Z</time></trkpt>
<trkpt lat="48.73602000" lon="0.928840000"><ele>0</ele><time>2010-01-01T07:40:13Z</time></trkpt>
<trkpt lat="48.73606000" lon="0.928590000"><ele>0</ele><time>2010-01-01T07:40:20Z</time></trkpt>
<trkpt lat="48.73609000" lon="0.928460000"><ele>0</ele><time>2010-01-01T07:40:24Z</time></trkpt>
<trkpt lat="48.73611000" lon="0.928320000"><ele>0</ele><time>2010-01-01T07:40:28Z</time></trkpt>
<trkpt lat="48.73613000" lon="0.928080000"><ele>0</ele><time>2010-01-01T07:40:34Z</time></trkpt>
<trkpt lat="48.73613000" lon="0.928020000"><ele>0</ele><time>2010-01-01T07:40:36Z</time></trkpt>
<trkpt lat="48.73582000" lon="0.927800000"><ele>0</ele><time>2010-01-01T07:40:49Z</time></trkpt>
<trkpt lat="48.73568000" lon="0.927710000"><ele>0</ele><time>2010-01-01T07:40:55Z</time></trkpt>
<trkpt lat="48.73554000" lon="0.927610000"><ele>0</ele><time>2010-01-01T07:41:02Z</time></trkpt>
<trkpt lat="48.73539000" lon="0.927530000"><ele>0</ele><time>2010-01-01T07:41:08Z</time></trkpt>
<trkpt lat="48.73528000" lon="0.927460000"><ele>0</ele><time>2010-01-01T07:41:13Z</time></trkpt>
<trkpt lat="48.73514000" lon="0.927390000"><ele>0</ele><time>2010-01-01T07:41:19Z</time></trkpt>
<trkpt lat="48.73511000" lon="0.927370000"><ele>0</ele><time>2010-01-01T07:41:20Z</time></trkpt>
<trkpt lat="48.73507000" lon="0.927350000"><ele>0</ele><time>2010-01-01T07:41:22Z</time></trkpt>
<trkpt lat="48.73503000" lon="0.927350000"><ele>0</ele><time>2010-01-01T07:41:23Z</time></trkpt>
<trkpt lat="48.73500000" lon="0.927360000"><ele>0</ele><time>2010-01-01T07:41:25Z</time></trkpt>
<trkpt lat="48.73496000" lon="0.927360000"><ele>0</ele><time>2010-01-01T07:41:26Z</time></trkpt>
<trkpt lat="48.73489000" lon="0.927380000"><ele>0</ele><time>2010-01-01T07:41:29Z</time></trkpt>
<trkpt lat="48.73470000" lon="0.927450000"><ele>0</ele><time>2010-01-01T07:41:37Z</time></trkpt>
<trkpt lat="48.73469000" lon="0.927450000"><ele>0</ele><time>2010-01-01T07:41:37Z</time></trkpt>
<trkpt lat="48.73398000" lon="0.927760000"><ele>0</ele><time>2010-01-01T07:42:07Z</time></trkpt>
<trkpt lat="48.73336000" lon="0.927980000"><ele>0</ele><time>2010-01-01T07:42:32Z</time></trkpt>
<trkpt lat="48.73331000" lon="0.927970000"><ele>0</ele><time>2010-01-01T07:42:34Z</time></trkpt>
<trkpt lat="48.73312000" lon="0.928030000"><ele>0</ele><time>2010-01-01T07:42:42Z</time></trkpt>
<trkpt lat="48.73302000" lon="0.928030000"><ele>0</ele><time>2010-01-01T07:42:46Z</time></trkpt>
<trkpt lat="48.73289000" lon="0.928020000"><ele>0</ele><time>2010-01-01T07:42:51Z</time></trkpt>
<trkpt lat="48.73268000" lon="0.928120000"><ele>0</ele><time>2010-01-01T07:43:00Z</time></trkpt>
<trkpt lat="48.73263000" lon="0.928150000"><ele>0</ele><time>2010-01-01T07:43:02Z</time></trkpt>
<trkpt lat="48.73248000" lon="0.928180000"><ele>0</ele><time>2010-01-01T07:43:08Z</time></trkpt>
<trkpt lat="48.73242000" lon="0.928200000"><ele>0</ele><time>2010-01-01T07:43:11Z</time></trkpt>
<trkpt lat="48.73238000" lon="0.928220000"><ele>0</ele><time>2010-01-01T07:43:12Z</time></trkpt>
<trkpt lat="48.73231000" lon="0.928200000"><ele>0</ele><time>2010-01-01T07:43:15Z</time></trkpt>
<trkpt lat="48.73224000" lon="0.928190000"><ele>0</ele><time>2010-01-01T07:43:18Z</time></trkpt>
<trkpt lat="48.73111000" lon="0.927920000"><ele>0</ele><time>2010-01-01T07:44:04Z</time></trkpt>
<trkpt lat="48.73100000" lon="0.927900000"><ele>0</ele><time>2010-01-01T07:44:08Z</time></trkpt>
<trkpt lat="48.73091000" lon="0.927910000"><ele>0</ele><time>2010-01-01T07:44:12Z</time></trkpt>
<trkpt lat="48.73084000" lon="0.927930000"><ele>0</ele><time>2010-01-01T07:44:15Z</time></trkpt>
<trkpt lat="48.73078000" lon="0.927970000"><ele>0</ele><time>2010-01-01T07:44:17Z</time></trkpt>
<trkpt lat="48.73066000" lon="0.928040000"><ele>0</ele><time>2010-01-01T07:44:23Z</time></trkpt>
<trkpt lat="48.73063000" lon="0.927940000"><ele>0</ele><time>2010-01-01T07:44:25Z</time></trkpt>
<trkpt lat="48.73058000" lon="0.927860000"><ele>0</ele><time>2010-01-01T07:44:28Z</time></trkpt>
<trkpt lat="48.73055000" lon="0.927830000"><ele>0</ele><time>2010-01-01T07:44:30Z</time></trkpt>
<trkpt lat="48.73049000" lon="0.927790000"><ele>0</ele><time>2010-01-01T07:44:32Z</time></trkpt>
<trkpt lat="48.73034000" lon="0.927730000"><ele>0</ele><time>2010-01-01T07:44:39Z</time></trkpt>
<trkpt lat="48.72607000" lon="0.926730000"><ele>0</ele><time>2010-01-01T07:47:32Z</time></trkpt>
<trkpt lat="48.72526000" lon="0.926560000"><ele>0</ele><time>2010-01-01T07:48:04Z</time></trkpt>
<trkpt lat="48.72425000" lon="0.926320000"><ele>0</ele><time>2010-01-01T07:48:45Z</time></trkpt>
<trkpt lat="48.72374000" lon="0.926220000"><ele>0</ele><time>2010-01-01T07:49:06Z</time></trkpt>
<trkpt lat="48.72070000" lon="0.925510000"><ele>0</ele><time>2010-01-01T07:51:09Z</time></trkpt>
<trkpt lat="48.72041000" lon="0.925450000"><ele>0</ele><time>2010-01-01T07:51:21Z</time></trkpt>
<trkpt lat="48.72033000" lon="0.925420000"><ele>0</ele><time>2010-01-01T07:51:24Z</time></trkpt>
<trkpt lat="48.71545000" lon="0.924310000"><ele>0</ele><time>2010-01-01T07:54:42Z</time></trkpt>
<trkpt lat="48.71460000" lon="0.924100000"><ele>0</ele><time>2010-01-01T07:55:16Z</time></trkpt>
<trkpt lat="48.71438000" lon="0.924020000"><ele>0</ele><time>2010-01-01T07:55:25Z</time></trkpt>
<trkpt lat="48.71401000" lon="0.923950000"><ele>0</ele><time>2010-01-01T07:55:40Z</time></trkpt>
<trkpt lat="48.70956000" lon="0.922950000"><ele>0</ele><time>2010-01-01T07:58:40Z</time></trkpt>
<trkpt lat="48.70955000" lon="0.922950000"><ele>0</ele><time>2010-01-01T07:58:40Z</time></trkpt>
<trkpt lat="48.70901000" lon="0.922830000"><ele>0</ele><time>2010-01-01T07:59:02Z</time></trkpt>
<trkpt lat="48.70889000" lon="0.922790000"><ele>0</ele><time>2010-01-01T07:59:07Z</time></trkpt>
<trkpt lat="48.70830000" lon="0.922650000"><ele>0</ele><time>2010-01-01T07:59:31Z</time></trkpt>
<trkpt lat="48.70532000" lon="0.922010000"><ele>0</ele><time>2010-01-01T08:01:32Z</time></trkpt>
<trkpt lat="48.70214000" lon="0.921250000"><ele>0</ele><time>2010-01-01T08:03:40Z</time></trkpt>
<trkpt lat="48.70190000" lon="0.921200000"><ele>0</ele><time>2010-01-01T08:03:50Z</time></trkpt>
<trkpt lat="48.70170000" lon="0.921140000"><ele>0</ele><time>2010-01-01T08:03:58Z</time></trkpt>
<trkpt lat="48.70108000" lon="0.921000000"><ele>0</ele><time>2010-01-01T08:04:23Z</time></trkpt>
<trkpt lat="48.70009000" lon="0.920750000"><ele>0</ele><time>2010-01-01T08:05:04Z</time></trkpt>
<trkpt lat="48.69974000" lon="0.920680000"><ele>0</ele><time>2010-01-01T08:05:18Z</time></trkpt>
<trkpt lat="48.69972000" lon="0.920670000"><ele>0</ele><time>2010-01-01T08:05:19Z</time></trkpt>
<trkpt lat="48.69962000" lon="0.920660000"><ele>0</ele><time>2010-01-01T08:05:23Z</time></trkpt>
<trkpt lat="48.69916000" lon="0.920540000"><ele>0</ele><time>2010-01-01T08:05:41Z</time></trkpt>
<trkpt lat="48.69770000" lon="0.920210000"><ele>0</ele><time>2010-01-01T08:06:40Z</time></trkpt>
<trkpt lat="48.69723000" lon="0.920120000"><ele>0</ele><time>2010-01-01T08:06:59Z</time></trkpt>
<trkpt lat="48.69491000" lon="0.919610000"><ele>0</ele><time>2010-01-01T08:08:33Z</time></trkpt>
<trkpt lat="48.69374000" lon="0.919330000"><ele>0</ele><time>2010-01-01T08:09:21Z</time></trkpt>
<trkpt lat="48.69274000" lon="0.919110000"><ele>0</ele><time>2010-01-01T08:10:01Z</time></trkpt>
<trkpt lat="48.69261000" lon="0.919070000"><ele>0</ele><time>2010-01-01T08:10:06Z</time></trkpt>
<trkpt lat="48.69066000" lon="0.918620000"><ele>0</ele><time>2010-01-01T08:11:25Z</time></trkpt>
<trkpt lat="48.69030000" lon="0.918550000"><ele>0</ele><time>2010-01-01T08:11:40Z</time></trkpt>
<trkpt lat="48.68998000" lon="0.918460000"><ele>0</ele><time>2010-01-01T08:11:53Z</time></trkpt>
<trkpt lat="48.68207000" lon="0.916620000"><ele>0</ele><time>2010-01-01T08:17:13Z</time></trkpt>
<trkpt lat="48.68162000" lon="0.916530000"><ele>0</ele><time>2010-01-01T08:17:31Z</time></trkpt>
<trkpt lat="48.68042000" lon="0.916250000"><ele>0</ele><time>2010-01-01T08:18:20Z</time></trkpt>
<trkpt lat="48.68026000" lon="0.916220000"><ele>0</ele><time>2010-01-01T08:18:26Z</time></trkpt>
<trkpt lat="48.67984000" lon="0.916110000"><ele>0</ele><time>2010-01-01T08:18:44Z</time></trkpt>
<trkpt lat="48.67517000" lon="0.915030000"><ele>0</ele><time>2010-01-01T08:21:53Z</time></trkpt>
<trkpt lat="48.67475000" lon="0.914950000"><ele>0</ele><time>2010-01-01T08:22:10Z</time></trkpt>
<trkpt lat="48.67449000" lon="0.914870000"><ele>0</ele><time>2010-01-01T08:22:20Z</time></trkpt>
<trkpt lat="48.67321000" lon="0.914580000"><ele>0</ele><time>2010-01-01T08:23:12Z</time></trkpt>
<trkpt lat="48.67182000" lon="0.914320000"><ele>0</ele><time>2010-01-01T08:24:08Z</time></trkpt>
<trkpt lat="48.67159000" lon="0.914270000"><ele>0</ele><time>2010-01-01T08:24:17Z</time></trkpt>
<trkpt lat="48.67125000" lon="0.914180000"><ele>0</ele><time>2010-01-01T08:24:31Z</time></trkpt>
<trkpt lat="48.66976000" lon="0.913840000"><ele>0</ele><time>2010-01-01T08:25:32Z</time></trkpt>
<trkpt lat="48.66863000" lon="0.913560000"><ele>0</ele><time>2010-01-01T08:26:17Z</time></trkpt>
<trkpt lat="48.66802000" lon="0.913430000"><ele>0</ele><time>2010-01-01T08:26:42Z</time></trkpt>
<trkpt lat="48.66373000" lon="0.912410000"><ele>0</ele><time>2010-01-01T08:29:36Z</time></trkpt>
<trkpt lat="48.66246000" lon="0.912130000"><ele>0</ele><time>2010-01-01T08:30:27Z</time></trkpt>
<trkpt lat="48.66205000" lon="0.912050000"><ele>0</ele><time>2010-01-01T08:30:44Z</time></trkpt>
<trkpt lat="48.66164000" lon="0.911950000"><ele>0</ele><time>2010-01-01T08:31:00Z</time></trkpt>
<trkpt lat="48.66054000" lon="0.911720000"><ele>0</ele><time>2010-01-01T08:31:45Z</time></trkpt>
<trkpt lat="48.65446000" lon="0.910310000"><ele>0</ele><time>2010-01-01T08:35:51Z</time></trkpt>
<trkpt lat="48.65406000" lon="0.910230000"><ele>0</ele><time>2010-01-01T08:36:07Z</time></trkpt>
<trkpt lat="48.65377000" lon="0.910150000"><ele>0</ele><time>2010-01-01T08:36:19Z</time></trkpt>
<trkpt lat="48.65342000" lon="0.910080000"><ele>0</ele><time>2010-01-01T08:36:33Z</time></trkpt>
<trkpt lat="48.65241000" lon="0.909850000"><ele>0</ele><time>2010-01-01T08:37:14Z</time></trkpt>
<trkpt lat="48.65200000" lon="0.909780000"><ele>0</ele><time>2010-01-01T08:37:31Z</time></trkpt>
<trkpt lat="48.65186000" lon="0.909750000"><ele>0</ele><time>2010-01-01T08:37:36Z</time></trkpt>
<trkpt lat="48.65150000" lon="0.909650000"><ele>0</ele><time>2010-01-01T08:37:51Z</time></trkpt>
<trkpt lat="48.64818000" lon="0.908890000"><ele>0</ele><time>2010-01-01T08:40:05Z</time></trkpt>
<trkpt lat="48.64780000" lon="0.908790000"><ele>0</ele><time>2010-01-01T08:40:21Z</time></trkpt>
<trkpt lat="48.64754000" lon="0.908740000"><ele>0</ele><time>2010-01-01T08:40:31Z</time></trkpt>
<trkpt lat="48.64615000" lon="0.908410000"><ele>0</ele><time>2010-01-01T08:41:28Z</time></trkpt>
<trkpt lat="48.64580000" lon="0.908340000"><ele>0</ele><time>2010-01-01T08:41:42Z</time></trkpt>
<trkpt lat="48.64549000" lon="0.908260000"><ele>0</ele><time>2010-01-01T08:41:54Z</time></trkpt>
<trkpt lat="48.63735000" lon="0.906390000"><ele>0</ele><time>2010-01-01T08:47:24Z</time></trkpt>
<trkpt lat="48.63724000" lon="0.906360000"><ele>0</ele><time>2010-01-01T08:47:28Z</time></trkpt>
<trkpt lat="48.63599000" lon="0.906090000"><ele>0</ele><time>2010-01-01T08:48:19Z</time></trkpt>
<trkpt lat="48.63577000" lon="0.906030000"><ele>0</ele><time>2010-01-01T08:48:28Z</time></trkpt>
<trkpt lat="48.63555000" lon="0.905990000"><ele>0</ele><time>2010-01-01T08:48:37Z</time></trkpt>
<trkpt lat="48.63512000" lon="0.905880000"><ele>0</ele><time>2010-01-01T08:48:54Z</time></trkpt>
<trkpt lat="48.63480000" lon="0.905820000"><ele>0</ele><time>2010-01-01T08:49:07Z</time></trkpt>
<trkpt lat="48.63438000" lon="0.905710000"><ele>0</ele><time>2010-01-01T08:49:24Z</time></trkpt>
<trkpt lat="48.62810000" lon="0.904290000"><ele>0</ele><time>2010-01-01T08:53:38Z</time></trkpt>
<trkpt lat="48.62750000" lon="0.904130000"><ele>0</ele><time>2010-01-01T08:54:03Z</time></trkpt>
<trkpt lat="48.62560000" lon="0.903710000"><ele>0</ele><time>2010-01-01T08:55:20Z</time></trkpt>
<trkpt lat="48.62553000" lon="0.903690000"><ele>0</ele><time>2010-01-01T08:55:22Z</time></trkpt>
<trkpt lat="48.62029000" lon="0.902530000"><ele>0</ele><time>2010-01-01T08:58:54Z</time></trkpt>
<trkpt lat="48.61779000" lon="0.901910000"><ele>0</ele><time>2010-01-01T09:00:36Z</time></trkpt>
<trkpt lat="48.61642000" lon="0.901630000"><ele>0</ele><time>2010-01-01T09:01:31Z</time></trkpt>
<trkpt lat="48.61617000" lon="0.901590000"><ele>0</ele><time>2010-01-01T09:01:41Z</time></trkpt>
<trkpt lat="48.61594000" lon="0.901530000"><ele>0</ele><time>2010-01-01T09:01:51Z</time></trkpt>
<trkpt lat="48.61484000" lon="0.901290000"><ele>0</ele><time>2010-01-01T09:02:35Z</time></trkpt>
<trkpt lat="48.61369000" lon="0.901010000"><ele>0</ele><time>2010-01-01T09:03:22Z</time></trkpt>
<trkpt lat="48.61356000" lon="0.900990000"><ele>0</ele><time>2010-01-01T09:03:27Z</time></trkpt>
<trkpt lat="48.61138000" lon="0.900510000"><ele>0</ele><time>2010-01-01T09:04:55Z</time></trkpt>
<trkpt lat="48.61123000" lon="0.900460000"><ele>0</ele><time>2010-01-01T09:05:01Z</time></trkpt>
<trkpt lat="48.61057000" lon="0.900300000"><ele>0</ele><time>2010-01-01T09:05:28Z</time></trkpt>
<trkpt lat="48.61050000" lon="0.900300000"><ele>0</ele><time>2010-01-01T09:05:31Z</time></trkpt>
<trkpt lat="48.61049000" lon="0.900310000"><ele>0</ele><time>2010-01-01T09:05:31Z</time></trkpt>
<trkpt lat="48.61047000" lon="0.900340000"><ele>0</ele><time>2010-01-01T09:05:32Z</time></trkpt>
<trkpt lat="48.61042000" lon="0.900450000"><ele>0</ele><time>2010-01-01T09:05:36Z</time></trkpt>
<trkpt lat="48.61042000" lon="0.900470000"><ele>0</ele><time>2010-01-01T09:05:36Z</time></trkpt>
<trkpt lat="48.61025000" lon="0.901060000"><ele>0</ele><time>2010-01-01T09:05:53Z</time></trkpt>
<trkpt lat="48.61016000" lon="0.901290000"><ele>0</ele><time>2010-01-01T09:06:01Z</time></trkpt>
<trkpt lat="48.60976000" lon="0.902220000"><ele>0</ele><time>2010-01-01T09:06:30Z</time></trkpt>
<trkpt lat="48.60949000" lon="0.902810000"><ele>0</ele><time>2010-01-01T09:06:49Z</time></trkpt>
<trkpt lat="48.60928000" lon="0.903350000"><ele>0</ele><time>2010-01-01T09:07:05Z</time></trkpt>
<trkpt lat="48.60924000" lon="0.903440000"><ele>0</ele><time>2010-01-01T09:07:08Z</time></trkpt>
<trkpt lat="48.60897000" lon="0.904230000"><ele>0</ele><time>2010-01-01T09:07:32Z</time></trkpt>
<trkpt lat="48.60886000" lon="0.904520000"><ele>0</ele><time>2010-01-01T09:07:41Z</time></trkpt>
<trkpt lat="48.60838000" lon="0.905980000"><ele>0</ele><time>2010-01-01T09:08:24Z</time></trkpt>
<trkpt lat="48.60821000" lon="0.906430000"><ele>0</ele><time>2010-01-01T09:08:38Z</time></trkpt>
<trkpt lat="48.60816000" lon="0.906640000"><ele>0</ele><time>2010-01-01T09:08:44Z</time></trkpt>
<trkpt lat="48.60814000" lon="0.906790000"><ele>0</ele><time>2010-01-01T09:08:48Z</time></trkpt>
<trkpt lat="48.60813000" lon="0.906950000"><ele>0</ele><time>2010-01-01T09:08:52Z</time></trkpt>
<trkpt lat="48.60813000" lon="0.907200000"><ele>0</ele><time>2010-01-01T09:08:58Z</time></trkpt>
<trkpt lat="48.60811000" lon="0.907400000"><ele>0</ele><time>2010-01-01T09:09:04Z</time></trkpt>
<trkpt lat="48.60811000" lon="0.907680000"><ele>0</ele><time>2010-01-01T09:09:11Z</time></trkpt>
<trkpt lat="48.60813000" lon="0.908260000"><ele>0</ele><time>2010-01-01T09:09:27Z</time></trkpt>
<trkpt lat="48.60815000" lon="0.908510000"><ele>0</ele><time>2010-01-01T09:09:33Z</time></trkpt>
<trkpt lat="48.60819000" lon="0.909310000"><ele>0</ele><time>2010-01-01T09:09:54Z</time></trkpt>
<trkpt lat="48.60821000" lon="0.909470000"><ele>0</ele><time>2010-01-01T09:09:59Z</time></trkpt>
<trkpt lat="48.60822000" lon="0.909740000"><ele>0</ele><time>2010-01-01T09:10:06Z</time></trkpt>
<trkpt lat="48.60821000" lon="0.910130000"><ele>0</ele><time>2010-01-01T09:10:16Z</time></trkpt>
<trkpt lat="48.60804000" lon="0.910110000"><ele>0</ele><time>2010-01-01T09:10:23Z</time></trkpt>
<trkpt lat="48.60751000" lon="0.914240000"><ele>0</ele><time>2010-01-01T09:12:14Z</time></trkpt>
<trkpt lat="48.60583000" lon="0.912830000"><ele>0</ele><time>2010-01-01T09:13:31Z</time></trkpt>
<trkpt lat="48.60610000" lon="0.912020000"><ele>0</ele><time>2010-01-01T09:13:55Z</time></trkpt>
<trkpt lat="48.60621000" lon="0.911660000"><ele>0</ele><time>2010-01-01T09:14:06Z</time></trkpt>
<trkpt lat="48.60626000" lon="0.911420000"><ele>0</ele><time>2010-01-01T09:14:13Z</time></trkpt>
<trkpt lat="48.60626000" lon="0.911220000"><ele>0</ele><time>2010-01-01T09:14:18Z</time></trkpt>
<trkpt lat="48.60620000" lon="0.910950000"><ele>0</ele><time>2010-01-01T09:14:25Z</time></trkpt>
<trkpt lat="48.60610000" lon="0.910780000"><ele>0</ele><time>2010-01-01T09:14:31Z</time></trkpt>
<trkpt lat="48.60598000" lon="0.910690000"><ele>0</ele><time>2010-01-01T09:14:37Z</time></trkpt>
<trkpt lat="48.60586000" lon="0.910660000"><ele>0</ele><time>2010-01-01T09:14:42Z</time></trkpt>
<trkpt lat="48.60577000" lon="0.910680000"><ele>0</ele><time>2010-01-01T09:14:45Z</time></trkpt>
<trkpt lat="48.60569000" lon="0.910690000"><ele>0</ele><time>2010-01-01T09:14:48Z</time></trkpt>
<trkpt lat="48.60563000" lon="0.910740000"><ele>0</ele><time>2010-01-01T09:14:51Z</time></trkpt>
<trkpt lat="48.60565000" lon="0.910320000"><ele>0</ele><time>2010-01-01T09:15:02Z</time></trkpt>
<trkpt lat="48.60569000" lon="0.910040000"><ele>0</ele><time>2010-01-01T09:15:10Z</time></trkpt>
<trkpt lat="48.60597000" lon="0.909060000"><ele>0</ele><time>2010-01-01T09:15:38Z</time></trkpt>
</trkseg></trk></gpx>